Dades meteomassalio
Diari Summary for Gener 4, 2018 Units:  Both    English   Metric
« Previous Day
Next Day »
Diari Semanal Mensual Anual Personalitzat
  Maxima: Minima: Mijana:
Temperatura: TemperatureC °F /  -17.8 °C 10.6 °F /  -11.9 °C 14.7 °F /  -9.6 °C
Rosada: DewpointC °F /  -17.8 °C 3.6 °F /  -15.8 °C 7.1 °F /  -13.8 °C
Humitat: Humidity % 44 % 61 %
Velocitat del vent: WindSpeedKMH mph /  0 km/h - 24.3 mph /  39.1 km/h
Racha vent: WindSpeedGustKMH mph /  0 km/h - -
Vent:- - NW
Pressio: PressurehPa in /  0 hPa 1020.9 in /  34567.7 hPa -
Pluja: 0.0 in /  0 mm    
Historical Graphs
 
 
Tabular Data for Gener 4, 2018
Time Temperature Dew Point Pressure Wind Wind Speed Wind Gust Humidity Rainfall Rate (Hourly) solar Conditions
TemperatureC °F /  -17.8 °C DewpointC °F /  -17.8 °C PressurehPa in /  0 hPa Calm     Humidity % HourlyPrecipMM in /  0 mm SolarRadiationWatts/m^2 W/m2 Conditions
00:02 13.9 °F /  -10.1 °C 7.8 °F /  -13.4 °C 1027.7 in /  34797.9 hPa WNW 18.5 mph /  29.8 km/h 18.5 mph /  29.8 km/h 67 % 0.0 in /  0 mm 0.0 W/m2 CLR
00:03 13.9 °F /  -10.1 °C 7.8 °F /  -13.4 °C 1027.7 in /  34797.9 hPa WNW 16.7 mph /  26.9 km/h 16.7 mph /  26.9 km/h 67 % 0.0 in /  0 mm 0.0 W/m2 CLR
00:04 13.9 °F /  -10.1 °C 7.8 °F /  -13.4 °C 1027.7 in /  34797.9 hPa WNW 16.7 mph /  26.9 km/h 16.7 mph /  26.9 km/h 67 % 0.0 in /  0 mm 0.0 W/m2 CLR
00:08 14.4 °F /  -9.8 °C 8.4 °F /  -13.1 °C 1027.3 in /  34784.4 hPa West 16.7 mph /  26.9 km/h 16.7 mph /  26.9 km/h 67 % 0.0 in /  0 mm 0.0 W/m2 CLR
00:11 14.4 °F /  -9.8 °C 8.6 °F /  -13 °C 1027.3 in /  34784.4 hPa WNW 9.3 mph /  15 km/h 9.3 mph /  15 km/h 68 % 0.0 in /  0 mm 0.0 W/m2 CLR
00:15 14.4 °F /  -9.8 °C 8.8 °F /  -12.9 °C 1027.3 in /  34784.4 hPa WNW 18.5 mph /  29.8 km/h 18.5 mph /  29.8 km/h 69 % 0.0 in /  0 mm 0.0 W/m2 CLR
00:16 14.4 °F /  -9.8 °C 8.8 °F /  -12.9 °C 1027.3 in /  34784.4 hPa West 18.5 mph /  29.8 km/h 18.5 mph /  29.8 km/h 69 % 0.0 in /  0 mm 0.0 W/m2 CLR
00:21 13.9 °F /  -10.1 °C 8.3 °F /  -13.2 °C 1027.3 in /  34784.4 hPa West 18.5 mph /  29.8 km/h 18.5 mph /  29.8 km/h 69 % 0.0 in /  0 mm 0.0 W/m2 CLR
00:26 13.9 °F /  -10.1 °C 8.3 °F /  -13.2 °C 1027.3 in /  34784.4 hPa West 17.7 mph /  28.5 km/h 17.7 mph /  28.5 km/h 69 % 0.0 in /  0 mm 0.0 W/m2 CLR
00:27 13.9 °F /  -10.1 °C 8.3 °F /  -13.2 °C 1027.3 in /  34784.4 hPa West 18.5 mph /  29.8 km/h 18.5 mph /  29.8 km/h 69 % 0.0 in /  0 mm 0.0 W/m2 CLR
00:32 13.9 °F /  -10.1 °C 8.3 °F /  -13.2 °C 1027.3 in /  34784.4 hPa West 18.5 mph /  29.8 km/h 18.5 mph /  29.8 km/h 69 % 0.0 in /  0 mm 0.0 W/m2 CLR
00:33 13.9 °F /  -10.1 °C 8.5 °F /  -13.1 °C 1027.3 in /  34784.4 hPa WNW 18.5 mph /  29.8 km/h 18.5 mph /  29.8 km/h 70 % 0.0 in /  0 mm 0.0 W/m2 CLR
00:38 13.9 °F /  -10.1 °C 8.5 °F /  -13.1 °C 1027.3 in /  34784.4 hPa WNW 12.9 mph /  20.8 km/h 12.9 mph /  20.8 km/h 70 % 0.0 in /  0 mm 0.0 W/m2 CLR
00:39 13.9 °F /  -10.1 °C 8.5 °F /  -13.1 °C 1027.3 in /  34784.4 hPa West 13.0 mph /  20.9 km/h 13.0 mph /  20.9 km/h 70 % 0.0 in /  0 mm 0.0 W/m2 CLR
00:44 13.9 °F /  -10.1 °C 8.5 °F /  -13.1 °C 1027.3 in /  34784.4 hPa WNW 14.5 mph /  23.3 km/h 14.5 mph /  23.3 km/h 70 % 0.0 in /  0 mm 0.0 W/m2 CLR
00:50 13.9 °F /  -10.1 °C 8.5 °F /  -13.1 °C 1027.3 in /  34784.4 hPa West 11.1 mph /  17.9 km/h 11.1 mph /  17.9 km/h 70 % 0.0 in /  0 mm 0.0 W/m2 CLR
00:52 13.9 °F /  -10.1 °C 8.5 °F /  -13.1 °C 1027.3 in /  34784.4 hPa West 14.8 mph /  23.8 km/h 14.8 mph /  23.8 km/h 70 % 0.0 in /  0 mm 0.0 W/m2 CLR
00:57 13.9 °F /  -10.1 °C 8.5 °F /  -13.1 °C 1027.3 in /  34784.4 hPa WNW 18.5 mph /  29.8 km/h 18.5 mph /  29.8 km/h 70 % 0.0 in /  0 mm 0.0 W/m2 CLR
01:00 13.9 °F /  -10.1 °C 8.5 °F /  -13.1 °C 1027.3 in /  34784.4 hPa WNW 13.0 mph /  20.9 km/h 13.0 mph /  20.9 km/h 70 % 0.0 in /  0 mm 0.0 W/m2 CLR
01:02 13.9 °F /  -10.1 °C 8.5 °F /  -13.1 °C 1027.3 in /  34784.4 hPa NW 18.5 mph /  29.8 km/h 18.5 mph /  29.8 km/h 70 % 0.0 in /  0 mm 0.0 W/m2 CLR
01:07 13.3 °F /  -10.4 °C 8.0 °F /  -13.3 °C 1027.3 in /  34784.4 hPa NW 16.7 mph /  26.9 km/h 16.7 mph /  26.9 km/h 70 % 0.0 in /  0 mm 0.0 W/m2 CLR
01:09 13.3 °F /  -10.4 °C 8.0 °F /  -13.3 °C 1027.3 in /  34784.4 hPa WNW 18.5 mph /  29.8 km/h 18.5 mph /  29.8 km/h 70 % 0.0 in /  0 mm 0.0 W/m2 CLR
01:11 13.3 °F /  -10.4 °C 7.8 °F /  -13.4 °C 1027.3 in /  34784.4 hPa WNW 13.0 mph /  20.9 km/h 13.0 mph /  20.9 km/h 69 % 0.0 in /  0 mm 0.0 W/m2 CLR
01:14 13.3 °F /  -10.4 °C 7.8 °F /  -13.4 °C 1027.3 in /  34784.4 hPa NW 16.7 mph /  26.9 km/h 16.7 mph /  26.9 km/h 69 % 0.0 in /  0 mm 0.0 W/m2 CLR
01:19 13.3 °F /  -10.4 °C 7.8 °F /  -13.4 °C 1027.3 in /  34784.4 hPa NW 17.7 mph /  28.5 km/h 17.7 mph /  28.5 km/h 69 % 0.0 in /  0 mm 0.0 W/m2 CLR
01:25 13.3 °F /  -10.4 °C 7.8 °F /  -13.4 °C 1027.3 in /  34784.4 hPa NW 18.5 mph /  29.8 km/h 18.5 mph /  29.8 km/h 69 % 0.0 in /  0 mm 0.0 W/m2 CLR
01:27 13.3 °F /  -10.4 °C 7.8 °F /  -13.4 °C 1027.3 in /  34784.4 hPa NNW 16.7 mph /  26.9 km/h 16.7 mph /  26.9 km/h 69 % 0.0 in /  0 mm 0.0 W/m2 CLR
01:30 13.3 °F /  -10.4 °C 7.8 °F /  -13.4 °C 1027.3 in /  34784.4 hPa NW 18.5 mph /  29.8 km/h 18.5 mph /  29.8 km/h 69 % 0.0 in /  0 mm 0.0 W/m2 CLR
01:35 13.3 °F /  -10.4 °C 7.8 °F /  -13.4 °C 1027.3 in /  34784.4 hPa NNW 16.7 mph /  26.9 km/h 16.7 mph /  26.9 km/h 69 % 0.0 in /  0 mm 0.0 W/m2 CLR
01:40 13.3 °F /  -10.4 °C 7.8 °F /  -13.4 °C 1027.3 in /  34784.4 hPa NW 14.8 mph /  23.8 km/h 14.8 mph /  23.8 km/h 69 % 0.0 in /  0 mm 0.0 W/m2 CLR
01:43 13.3 °F /  -10.4 °C 7.8 °F /  -13.4 °C 1027.0 in /  34774.2 hPa NW 14.8 mph /  23.8 km/h 14.8 mph /  23.8 km/h 69 % 0.0 in /  0 mm 0.0 W/m2 CLR
01:44 13.3 °F /  -10.4 °C 7.8 °F /  -13.4 °C 1027.0 in /  34774.2 hPa NW 16.7 mph /  26.9 km/h 16.7 mph /  26.9 km/h 69 % 0.0 in /  0 mm 0.0 W/m2 CLR
01:48 13.9 °F /  -10.1 °C 8.3 °F /  -13.2 °C 1027.0 in /  34774.2 hPa NW 14.8 mph /  23.8 km/h 14.8 mph /  23.8 km/h 69 % 0.0 in /  0 mm 0.0 W/m2 CLR
01:49 13.9 °F /  -10.1 °C 8.3 °F /  -13.2 °C 1027.0 in /  34774.2 hPa NW 17.7 mph /  28.5 km/h 17.7 mph /  28.5 km/h 69 % 0.0 in /  0 mm 0.0 W/m2 CLR
01:54 13.9 °F /  -10.1 °C 8.3 °F /  -13.2 °C 1027.0 in /  34774.2 hPa NW 18.5 mph /  29.8 km/h 18.5 mph /  29.8 km/h 69 % 0.0 in /  0 mm 0.0 W/m2 CLR
01:57 13.3 °F /  -10.4 °C 7.8 °F /  -13.4 °C 1027.0 in /  34774.2 hPa NW 14.8 mph /  23.8 km/h 14.8 mph /  23.8 km/h 69 % 0.0 in /  0 mm 0.0 W/m2 CLR
02:00 13.3 °F /  -10.4 °C 7.8 °F /  -13.4 °C 1027.0 in /  34774.2 hPa WNW 14.8 mph /  23.8 km/h 14.8 mph /  23.8 km/h 69 % 0.0 in /  0 mm 0.0 W/m2 CLR
02:02 13.3 °F /  -10.4 °C 7.8 °F /  -13.4 °C 1027.0 in /  34774.2 hPa WNW 17.7 mph /  28.5 km/h 17.7 mph /  28.5 km/h 69 % 0.0 in /  0 mm 0.0 W/m2 CLR
02:07 13.3 °F /  -10.4 °C 7.8 °F /  -13.4 °C 1027.3 in /  34784.4 hPa WNW 11.3 mph /  18.2 km/h 11.3 mph /  18.2 km/h 69 % 0.0 in /  0 mm 0.0 W/m2 CLR
02:08 13.3 °F /  -10.4 °C 7.8 °F /  -13.4 °C 1027.3 in /  34784.4 hPa West 11.1 mph /  17.9 km/h   69 % 0.0 in /  0 mm 0.0 W/m2 CLR
02:12 12.8 °F /  -10.7 °C 7.2 °F /  -13.8 °C 1027.3 in /  34784.4 hPa WSW 3.7 mph /  6 km/h 3.7 mph /  6 km/h 69 % 0.0 in /  0 mm 0.0 W/m2 CLR
02:16 12.2 °F /  -11 °C 6.7 °F /  -14.1 °C 1027.3 in /  34784.4 hPa Calm     69 % 0.0 in /  0 mm 0.0 W/m2 CLR
02:17 12.2 °F /  -11 °C 6.9 °F /  -13.9 °C 1027.3 in /  34784.4 hPa Calm     70 % 0.0 in /  0 mm 0.0 W/m2 CLR
02:22 11.7 °F /  -11.3 °C 6.6 °F /  -14.1 °C 1027.0 in /  34774.2 hPa West 9.3 mph /  15 km/h 9.3 mph /  15 km/h 71 % 0.0 in /  0 mm 0.0 W/m2 CLR
02:23 11.7 °F /  -11.3 °C 6.6 °F /  -14.1 °C 1027.0 in /  34774.2 hPa West 9.3 mph /  15 km/h 9.3 mph /  15 km/h 71 % 0.0 in /  0 mm 0.0 W/m2 CLR
02:25 11.7 °F /  -11.3 °C 6.6 °F /  -14.1 °C 1027.0 in /  34774.2 hPa WNW 9.3 mph /  15 km/h 9.3 mph /  15 km/h 71 % 0.0 in /  0 mm 0.0 W/m2 CLR
02:29 11.1 °F /  -11.6 °C 6.3 °F /  -14.3 °C 1027.0 in /  34774.2 hPa West 13.0 mph /  20.9 km/h 13.0 mph /  20.9 km/h 72 % 0.0 in /  0 mm 0.0 W/m2 CLR
02:34 10.6 °F /  -11.9 °C 5.7 °F /  -14.6 °C 1027.0 in /  34774.2 hPa WNW 13.0 mph /  20.9 km/h 13.0 mph /  20.9 km/h 72 % 0.0 in /  0 mm 0.0 W/m2 CLR
02:39 11.1 °F /  -11.6 °C 6.3 °F /  -14.3 °C 1027.0 in /  34774.2 hPa NW 16.7 mph /  26.9 km/h 16.7 mph /  26.9 km/h 72 % 0.0 in /  0 mm 0.0 W/m2 CLR
02:40 11.1 °F /  -11.6 °C 6.3 °F /  -14.3 °C 1027.0 in /  34774.2 hPa NW 14.8 mph /  23.8 km/h 14.8 mph /  23.8 km/h 72 % 0.0 in /  0 mm 0.0 W/m2 CLR
02:45 11.1 °F /  -11.6 °C 6.3 °F /  -14.3 °C 1027.0 in /  34774.2 hPa WNW 14.8 mph /  23.8 km/h 14.8 mph /  23.8 km/h 72 % 0.0 in /  0 mm 0.0 W/m2 CLR
02:46 11.1 °F /  -11.6 °C 6.3 °F /  -14.3 °C 1027.0 in /  34774.2 hPa WNW 14.8 mph /  23.8 km/h 14.8 mph /  23.8 km/h 72 % 0.0 in /  0 mm 0.0 W/m2 CLR
02:51 11.1 °F /  -11.6 °C 6.3 °F /  -14.3 °C 1027.0 in /  34774.2 hPa WNW 16.7 mph /  26.9 km/h 16.7 mph /  26.9 km/h 72 % 0.0 in /  0 mm 0.0 W/m2 CLR
02:53 11.1 °F /  -11.6 °C 6.3 °F /  -14.3 °C 1027.0 in /  34774.2 hPa WNW 18.5 mph /  29.8 km/h 18.5 mph /  29.8 km/h 72 % 0.0 in /  0 mm 0.0 W/m2 CLR
02:57 11.1 °F /  -11.6 °C 6.3 °F /  -14.3 °C 1027.0 in /  34774.2 hPa West 16.1 mph /  25.9 km/h 16.1 mph /  25.9 km/h 72 % 0.0 in /  0 mm 0.0 W/m2 CLR
03:00 11.1 °F /  -11.6 °C 6.3 °F /  -14.3 °C 1027.0 in /  34774.2 hPa WNW 16.7 mph /  26.9 km/h 16.7 mph /  26.9 km/h 72 % 0.0 in /  0 mm 0.0 W/m2 CLR
03:02 11.1 °F /  -11.6 °C 6.3 °F /  -14.3 °C 1027.0 in /  34774.2 hPa West 18.5 mph /  29.8 km/h 18.5 mph /  29.8 km/h 72 % 0.0 in /  0 mm 0.0 W/m2 CLR
03:07 11.7 °F /  -11.3 °C 6.8 °F /  -14 °C 1027.0 in /  34774.2 hPa WNW 14.8 mph /  23.8 km/h 14.8 mph /  23.8 km/h 72 % 0.0 in /  0 mm 0.0 W/m2 CLR
03:12 12.8 °F /  -10.7 °C 8.1 °F /  -13.3 °C 1027.0 in /  34774.2 hPa West 18.5 mph /  29.8 km/h 18.5 mph /  29.8 km/h 73 % 0.0 in /  0 mm 0.0 W/m2 CLR
03:17 13.3 °F /  -10.4 °C 8.6 °F /  -13 °C 1027.0 in /  34774.2 hPa WNW 18.5 mph /  29.8 km/h 18.5 mph /  29.8 km/h 73 % 0.0 in /  0 mm 0.0 W/m2 CLR
03:18 13.3 °F /  -10.4 °C 8.6 °F /  -13 °C 1027.0 in /  34774.2 hPa West 16.1 mph /  25.9 km/h 16.1 mph /  25.9 km/h 73 % 0.0 in /  0 mm 0.0 W/m2 CLR
03:23 12.8 °F /  -10.7 °C 8.1 °F /  -13.3 °C 1027.0 in /  34774.2 hPa WNW 16.7 mph /  26.9 km/h 16.7 mph /  26.9 km/h 73 % 0.0 in /  0 mm 0.0 W/m2 CLR
03:24 12.8 °F /  -10.7 °C 8.1 °F /  -13.3 °C 1027.0 in /  34774.2 hPa West 16.7 mph /  26.9 km/h 16.7 mph /  26.9 km/h 73 % 0.0 in /  0 mm 0.0 W/m2 CLR
03:29 12.8 °F /  -10.7 °C 8.1 °F /  -13.3 °C 1027.0 in /  34774.2 hPa WNW 18.5 mph /  29.8 km/h 18.5 mph /  29.8 km/h 73 % 0.0 in /  0 mm 0.0 W/m2 CLR
03:32 12.8 °F /  -10.7 °C 8.1 °F /  -13.3 °C 1027.0 in /  34774.2 hPa WNW 18.5 mph /  29.8 km/h 18.5 mph /  29.8 km/h 73 % 0.0 in /  0 mm 0.0 W/m2 CLR
03:35 12.2 °F /  -11 °C 7.5 °F /  -13.6 °C 1027.0 in /  34774.2 hPa WNW 14.8 mph /  23.8 km/h 14.8 mph /  23.8 km/h 73 % 0.0 in /  0 mm 0.0 W/m2 CLR
03:40 12.2 °F /  -11 °C 7.3 °F /  -13.7 °C 1027.0 in /  34774.2 hPa WNW 18.5 mph /  29.8 km/h 18.5 mph /  29.8 km/h 72 % 0.0 in /  0 mm 0.0 W/m2 CLR
03:45 12.2 °F /  -11 °C 7.3 °F /  -13.7 °C 1027.0 in /  34774.2 hPa WNW 13.0 mph /  20.9 km/h 13.0 mph /  20.9 km/h 72 % 0.0 in /  0 mm 0.0 W/m2 CLR
03:46 12.2 °F /  -11 °C 7.3 °F /  -13.7 °C 1027.0 in /  34774.2 hPa WNW 16.1 mph /  25.9 km/h 16.1 mph /  25.9 km/h 72 % 0.0 in /  0 mm 0.0 W/m2 CLR
03:51 12.2 °F /  -11 °C 7.1 °F /  -13.8 °C 1026.6 in /  34760.7 hPa NW 16.7 mph /  26.9 km/h 16.7 mph /  26.9 km/h 71 % 0.0 in /  0 mm 0.0 W/m2 CLR
03:52 12.2 °F /  -11 °C 7.1 °F /  -13.8 °C 1026.6 in /  34760.7 hPa WNW 18.5 mph /  29.8 km/h 18.5 mph /  29.8 km/h 71 % 0.0 in /  0 mm 0.0 W/m2 CLR
03:56 12.2 °F /  -11 °C 7.1 °F /  -13.8 °C 1026.6 in /  34760.7 hPa NW 16.7 mph /  26.9 km/h 16.7 mph /  26.9 km/h 71 % 0.0 in /  0 mm 0.0 W/m2 CLR
03:57 12.2 °F /  -11 °C 7.1 °F /  -13.8 °C 1026.6 in /  34760.7 hPa WNW 18.5 mph /  29.8 km/h 18.5 mph /  29.8 km/h 71 % 0.0 in /  0 mm 0.0 W/m2 CLR
04:02 12.2 °F /  -11 °C 7.1 °F /  -13.8 °C 1026.6 in /  34760.7 hPa NW 16.7 mph /  26.9 km/h 16.7 mph /  26.9 km/h 71 % 0.0 in /  0 mm 0.0 W/m2 CLR
04:03 12.2 °F /  -11 °C 7.1 °F /  -13.8 °C 1026.6 in /  34760.7 hPa WNW 16.7 mph /  26.9 km/h 16.7 mph /  26.9 km/h 71 % 0.0 in /  0 mm 0.0 W/m2 CLR
04:08 12.2 °F /  -11 °C 7.1 °F /  -13.8 °C 1026.6 in /  34760.7 hPa NW 18.5 mph /  29.8 km/h 18.5 mph /  29.8 km/h 71 % 0.0 in /  0 mm 0.0 W/m2 CLR
04:09 12.2 °F /  -11 °C 7.1 °F /  -13.8 °C 1026.6 in /  34760.7 hPa NW 18.5 mph /  29.8 km/h 18.5 mph /  29.8 km/h 71 % 0.0 in /  0 mm 0.0 W/m2 CLR
04:12 12.2 °F /  -11 °C 7.1 °F /  -13.8 °C 1026.6 in /  34760.7 hPa NW 13.0 mph /  20.9 km/h 13.0 mph /  20.9 km/h 71 % 0.0 in /  0 mm 0.0 W/m2 CLR
04:15 12.2 °F /  -11 °C 7.1 °F /  -13.8 °C 1026.3 in /  34750.5 hPa WNW 14.8 mph /  23.8 km/h 14.8 mph /  23.8 km/h 71 % 0.0 in /  0 mm 0.0 W/m2 CLR
04:20 11.7 °F /  -11.3 °C 6.6 °F /  -14.1 °C 1026.3 in /  34750.5 hPa WNW 16.7 mph /  26.9 km/h 16.7 mph /  26.9 km/h 71 % 0.0 in /  0 mm 0.0 W/m2 CLR
04:21 11.7 °F /  -11.3 °C 6.6 °F /  -14.1 °C 1026.3 in /  34750.5 hPa WNW 18.5 mph /  29.8 km/h 18.5 mph /  29.8 km/h 71 % 0.0 in /  0 mm 0.0 W/m2 CLR
04:26 11.1 °F /  -11.6 °C 6.3 °F /  -14.3 °C 1026.3 in /  34750.5 hPa West 13.0 mph /  20.9 km/h 13.0 mph /  20.9 km/h 72 % 0.0 in /  0 mm 0.0 W/m2 CLR
04:31 11.1 °F /  -11.6 °C 6.3 °F /  -14.3 °C 1026.3 in /  34750.5 hPa WNW 18.5 mph /  29.8 km/h 18.5 mph /  29.8 km/h 72 % 0.0 in /  0 mm 0.0 W/m2 CLR
04:32 11.1 °F /  -11.6 °C 6.4 °F /  -14.2 °C 1026.3 in /  34750.5 hPa WNW 16.7 mph /  26.9 km/h 16.7 mph /  26.9 km/h 73 % 0.0 in /  0 mm 0.0 W/m2 CLR
04:37 11.1 °F /  -11.6 °C 6.4 °F /  -14.2 °C 1026.3 in /  34750.5 hPa WNW 18.5 mph /  29.8 km/h 18.5 mph /  29.8 km/h 73 % 0.0 in /  0 mm 0.0 W/m2 CLR
04:39 11.1 °F /  -11.6 °C 6.4 °F /  -14.2 °C 1026.3 in /  34750.5 hPa WNW 18.5 mph /  29.8 km/h 18.5 mph /  29.8 km/h 73 % 0.0 in /  0 mm 0.0 W/m2 CLR
04:43 11.1 °F /  -11.6 °C 6.4 °F /  -14.2 °C 1026.3 in /  34750.5 hPa WNW 20.4 mph /  32.8 km/h 20.4 mph /  32.8 km/h 73 % 0.0 in /  0 mm 0.0 W/m2 CLR
04:45 11.7 °F /  -11.3 °C 7.0 °F /  -13.9 °C 1026.3 in /  34750.5 hPa WNW 19.3 mph /  31.1 km/h 19.3 mph /  31.1 km/h 73 % 0.0 in /  0 mm 0.0 W/m2 CLR
04:48 11.7 °F /  -11.3 °C 7.0 °F /  -13.9 °C 1026.3 in /  34750.5 hPa WNW 18.5 mph /  29.8 km/h 18.5 mph /  29.8 km/h 73 % 0.0 in /  0 mm 0.0 W/m2 CLR
04:53 12.2 °F /  -11 °C 7.5 °F /  -13.6 °C 1026.3 in /  34750.5 hPa NW 18.5 mph /  29.8 km/h 18.5 mph /  29.8 km/h 73 % 0.0 in /  0 mm 0.0 W/m2 CLR
04:54 12.2 °F /  -11 °C 7.5 °F /  -13.6 °C 1026.3 in /  34750.5 hPa NW 16.7 mph /  26.9 km/h 16.7 mph /  26.9 km/h 73 % 0.0 in /  0 mm 0.0 W/m2 CLR
04:59 12.2 °F /  -11 °C 7.3 °F /  -13.7 °C 1026.3 in /  34750.5 hPa WNW 16.1 mph /  25.9 km/h 16.1 mph /  25.9 km/h 72 % 0.0 in /  0 mm 0.0 W/m2 CLR
05:00 12.2 °F /  -11 °C 7.3 °F /  -13.7 °C 1026.3 in /  34750.5 hPa NW 16.7 mph /  26.9 km/h 16.7 mph /  26.9 km/h 72 % 0.0 in /  0 mm 0.0 W/m2 CLR
05:05 11.7 °F /  -11.3 °C 7.0 °F /  -13.9 °C 1026.3 in /  34750.5 hPa NW 16.7 mph /  26.9 km/h 16.7 mph /  26.9 km/h 73 % 0.0 in /  0 mm 0.0 W/m2 CLR
05:10 11.7 °F /  -11.3 °C 6.8 °F /  -14 °C 1026.3 in /  34750.5 hPa NW 22.2 mph /  35.7 km/h 22.2 mph /  35.7 km/h 72 % 0.0 in /  0 mm 0.0 W/m2 CLR
05:14 11.7 °F /  -11.3 °C 6.8 °F /  -14 °C 1026.3 in /  34750.5 hPa NW 16.7 mph /  26.9 km/h 16.7 mph /  26.9 km/h 72 % 0.0 in /  0 mm 0.0 W/m2 CLR
05:15 11.7 °F /  -11.3 °C 6.8 °F /  -14 °C 1026.0 in /  34740.4 hPa NW 18.5 mph /  29.8 km/h 18.5 mph /  29.8 km/h 72 % 0.0 in /  0 mm 0.0 W/m2 CLR
05:16 12.2 °F /  -11 °C 7.3 °F /  -13.7 °C 1026.3 in /  34750.5 hPa NW 16.7 mph /  26.9 km/h 16.7 mph /  26.9 km/h 72 % 0.0 in /  0 mm 0.0 W/m2 CLR
05:17 12.2 °F /  -11 °C 7.3 °F /  -13.7 °C 1026.3 in /  34750.5 hPa NW 16.7 mph /  26.9 km/h 16.7 mph /  26.9 km/h 72 % 0.0 in /  0 mm 0.0 W/m2 CLR
05:20 12.2 °F /  -11 °C 7.3 °F /  -13.7 °C 1026.0 in /  34740.4 hPa NW 18.5 mph /  29.8 km/h 18.5 mph /  29.8 km/h 72 % 0.0 in /  0 mm 0.0 W/m2 CLR
05:24 12.2 °F /  -11 °C 7.3 °F /  -13.7 °C 1026.0 in /  34740.4 hPa NW 14.8 mph /  23.8 km/h 14.8 mph /  23.8 km/h 72 % 0.0 in /  0 mm 0.0 W/m2 CLR
05:28 12.2 °F /  -11 °C 7.3 °F /  -13.7 °C 1026.0 in /  34740.4 hPa WNW 14.8 mph /  23.8 km/h 14.8 mph /  23.8 km/h 72 % 0.0 in /  0 mm 0.0 W/m2 CLR
05:32 11.7 °F /  -11.3 °C 6.8 °F /  -14 °C 1026.0 in /  34740.4 hPa WNW 13.0 mph /  20.9 km/h 13.0 mph /  20.9 km/h 72 % 0.0 in /  0 mm 0.0 W/m2 CLR
05:36 11.7 °F /  -11.3 °C 7.0 °F /  -13.9 °C 1026.0 in /  34740.4 hPa NW 18.5 mph /  29.8 km/h 18.5 mph /  29.8 km/h 73 % 0.0 in /  0 mm 0.0 W/m2 CLR
05:40 11.7 °F /  -11.3 °C 7.0 °F /  -13.9 °C 1026.0 in /  34740.4 hPa WNW 13.0 mph /  20.9 km/h 13.0 mph /  20.9 km/h 73 % 0.0 in /  0 mm 0.0 W/m2 CLR
05:42 11.1 °F /  -11.6 °C 6.4 °F /  -14.2 °C 1026.0 in /  34740.4 hPa NW 14.8 mph /  23.8 km/h 14.8 mph /  23.8 km/h 73 % 0.0 in /  0 mm 0.0 W/m2 CLR
05:43 11.1 °F /  -11.6 °C 6.4 °F /  -14.2 °C 1026.0 in /  34740.4 hPa NW 14.8 mph /  23.8 km/h 14.8 mph /  23.8 km/h 73 % 0.0 in /  0 mm 0.0 W/m2 CLR
05:47 11.1 °F /  -11.6 °C 6.4 °F /  -14.2 °C 1025.6 in /  34726.8 hPa NW 16.7 mph /  26.9 km/h 16.7 mph /  26.9 km/h 73 % 0.0 in /  0 mm 0.0 W/m2 CLR
05:48 11.1 °F /  -11.6 °C 6.4 °F /  -14.2 °C 1026.0 in /  34740.4 hPa NW 25.7 mph /  41.4 km/h 25.7 mph /  41.4 km/h 73 % 0.0 in /  0 mm 0.0 W/m2 CLR
05:50 11.1 °F /  -11.6 °C 6.4 °F /  -14.2 °C 1026.0 in /  34740.4 hPa NW 24.1 mph /  38.8 km/h 24.1 mph /  38.8 km/h 73 % 0.0 in /  0 mm 0.0 W/m2 CLR
05:55 11.1 °F /  -11.6 °C 6.3 °F /  -14.3 °C 1025.6 in /  34726.8 hPa NW 16.7 mph /  26.9 km/h 16.7 mph /  26.9 km/h 72 % 0.0 in /  0 mm 0.0 W/m2 CLR
05:57 11.7 °F /  -11.3 °C 6.8 °F /  -14 °C 1025.6 in /  34726.8 hPa NW 14.8 mph /  23.8 km/h 14.8 mph /  23.8 km/h 72 % 0.0 in /  0 mm 0.0 W/m2 CLR
06:02 11.1 °F /  -11.6 °C 6.3 °F /  -14.3 °C 1025.6 in /  34726.8 hPa NNW 18.5 mph /  29.8 km/h 18.5 mph /  29.8 km/h 72 % 0.0 in /  0 mm 0.0 W/m2 CLR
06:03 11.1 °F /  -11.6 °C 6.3 °F /  -14.3 °C 1025.6 in /  34726.8 hPa NW 18.5 mph /  29.8 km/h 18.5 mph /  29.8 km/h 72 % 0.0 in /  0 mm 0.0 W/m2 CLR
06:08 11.1 °F /  -11.6 °C 6.4 °F /  -14.2 °C 1025.6 in /  34726.8 hPa NW 18.5 mph /  29.8 km/h 18.5 mph /  29.8 km/h 73 % 0.0 in /  0 mm 0.0 W/m2 CLR
06:13 11.1 °F /  -11.6 °C 6.4 °F /  -14.2 °C 1025.6 in /  34726.8 hPa NW 18.5 mph /  29.8 km/h 18.5 mph /  29.8 km/h 73 % 0.0 in /  0 mm 0.0 W/m2 CLR
06:18 11.1 °F /  -11.6 °C 6.4 °F /  -14.2 °C 1025.6 in /  34726.8 hPa NW 18.5 mph /  29.8 km/h 18.5 mph /  29.8 km/h 73 % 0.0 in /  0 mm 0.0 W/m2 CLR
06:23 11.1 °F /  -11.6 °C 6.4 °F /  -14.2 °C 1025.6 in /  34726.8 hPa NW 16.7 mph /  26.9 km/h 16.7 mph /  26.9 km/h 73 % 0.0 in /  0 mm 0.0 W/m2 CLR
06:25 11.7 °F /  -11.3 °C 6.8 °F /  -14 °C 1025.6 in /  34726.8 hPa NW 16.7 mph /  26.9 km/h 16.7 mph /  26.9 km/h 72 % 0.0 in /  0 mm 0.0 W/m2 CLR
06:29 11.7 °F /  -11.3 °C 7.0 °F /  -13.9 °C 1025.6 in /  34726.8 hPa NW 18.5 mph /  29.8 km/h 18.5 mph /  29.8 km/h 73 % 0.0 in /  0 mm 0.0 W/m2 CLR
06:30 11.7 °F /  -11.3 °C 6.8 °F /  -14 °C 1025.6 in /  34726.8 hPa WNW 18.5 mph /  29.8 km/h 18.5 mph /  29.8 km/h 72 % 0.0 in /  0 mm 0.0 W/m2 CLR
06:35 11.7 °F /  -11.3 °C 6.8 °F /  -14 °C 1025.6 in /  34726.8 hPa NNW 14.8 mph /  23.8 km/h 14.8 mph /  23.8 km/h 72 % 0.0 in /  0 mm 0.0 W/m2 CLR
06:37 11.7 °F /  -11.3 °C 7.0 °F /  -13.9 °C 1025.6 in /  34726.8 hPa NW 14.5 mph /  23.3 km/h 14.5 mph /  23.3 km/h 73 % 0.0 in /  0 mm 0.0 W/m2 CLR
06:41 11.7 °F /  -11.3 °C 7.0 °F /  -13.9 °C 1025.6 in /  34726.8 hPa NW 18.5 mph /  29.8 km/h 18.5 mph /  29.8 km/h 73 % 0.0 in /  0 mm 0.0 W/m2 CLR
06:43 11.7 °F /  -11.3 °C 7.0 °F /  -13.9 °C 1025.6 in /  34726.8 hPa NW 18.5 mph /  29.8 km/h 18.5 mph /  29.8 km/h 73 % 0.0 in /  0 mm 0.0 W/m2 CLR
06:48 11.7 °F /  -11.3 °C 7.0 °F /  -13.9 °C 1025.6 in /  34726.8 hPa NW 20.4 mph /  32.8 km/h 20.4 mph /  32.8 km/h 73 % 0.0 in /  0 mm 0.0 W/m2 CLR
06:53 11.7 °F /  -11.3 °C 7.0 °F /  -13.9 °C 1025.6 in /  34726.8 hPa NW 18.5 mph /  29.8 km/h 18.5 mph /  29.8 km/h 73 % 0.0 in /  0 mm 0.0 W/m2 CLR
06:54 11.7 °F /  -11.3 °C 7.0 °F /  -13.9 °C 1025.6 in /  34726.8 hPa NW 18.5 mph /  29.8 km/h 18.5 mph /  29.8 km/h 73 % 0.0 in /  0 mm 0.0 W/m2 CLR
06:58 12.2 °F /  -11 °C 7.5 °F /  -13.6 °C 1025.6 in /  34726.8 hPa NW 18.5 mph /  29.8 km/h 18.5 mph /  29.8 km/h 73 % 0.0 in /  0 mm 0.0 W/m2 CLR
06:59 12.2 °F /  -11 °C 7.5 °F /  -13.6 °C 1025.6 in /  34726.8 hPa NW 18.5 mph /  29.8 km/h 18.5 mph /  29.8 km/h 73 % 0.0 in /  0 mm 0.0 W/m2 CLR
07:04 12.2 °F /  -11 °C 7.7 °F /  -13.5 °C 1025.6 in /  34726.8 hPa NW 20.4 mph /  32.8 km/h 20.4 mph /  32.8 km/h 74 % 0.0 in /  0 mm 0.0 W/m2 CLR
07:05 12.2 °F /  -11 °C 7.7 °F /  -13.5 °C 1025.6 in /  34726.8 hPa NNW 22.2 mph /  35.7 km/h 22.2 mph /  35.7 km/h 74 % 0.0 in /  0 mm 0.0 W/m2 CLR
07:08 12.2 °F /  -11 °C 7.7 °F /  -13.5 °C 1025.6 in /  34726.8 hPa NNW 20.4 mph /  32.8 km/h 20.4 mph /  32.8 km/h 74 % 0.0 in /  0 mm 0.0 W/m2 CLR
07:10 12.8 °F /  -10.7 °C 8.1 °F /  -13.3 °C 1025.6 in /  34726.8 hPa NW 14.8 mph /  23.8 km/h 14.8 mph /  23.8 km/h 73 % 0.0 in /  0 mm 0.0 W/m2 CLR
07:15 12.8 °F /  -10.7 °C 8.3 °F /  -13.2 °C 1025.6 in /  34726.8 hPa NNW 16.7 mph /  26.9 km/h 16.7 mph /  26.9 km/h 74 % 0.0 in /  0 mm 0.0 W/m2 CLR
07:16 12.8 °F /  -10.7 °C 8.3 °F /  -13.2 °C 1025.6 in /  34726.8 hPa NW 16.7 mph /  26.9 km/h 16.7 mph /  26.9 km/h 74 % 0.0 in /  0 mm 0.0 W/m2 CLR
07:17 12.8 °F /  -10.7 °C 8.4 °F /  -13.1 °C 1025.6 in /  34726.8 hPa NNW 16.7 mph /  26.9 km/h 16.7 mph /  26.9 km/h 75 % 0.0 in /  0 mm 0.0 W/m2 CLR
07:22 12.8 °F /  -10.7 °C 8.4 °F /  -13.1 °C 1025.6 in /  34726.8 hPa NNW 13.0 mph /  20.9 km/h 13.0 mph /  20.9 km/h 75 % 0.0 in /  0 mm 0.0 W/m2 CLR
07:24 12.8 °F /  -10.7 °C 8.4 °F /  -13.1 °C 1025.6 in /  34726.8 hPa NW 16.7 mph /  26.9 km/h 16.7 mph /  26.9 km/h 75 % 0.0 in /  0 mm 0.0 W/m2 CLR
07:28 12.2 °F /  -11 °C 8.1 °F /  -13.3 °C 1025.6 in /  34726.8 hPa NW 18.5 mph /  29.8 km/h 18.5 mph /  29.8 km/h 76 % 0.0 in /  0 mm 0.0 W/m2 CLR
07:32 12.2 °F /  -11 °C 8.1 °F /  -13.3 °C 1025.6 in /  34726.8 hPa NW 20.4 mph /  32.8 km/h 20.4 mph /  32.8 km/h 76 % 0.0 in /  0 mm 0.0 W/m2 CLR
07:34 12.2 °F /  -11 °C 7.9 °F /  -13.4 °C 1025.6 in /  34726.8 hPa NW 14.8 mph /  23.8 km/h 14.8 mph /  23.8 km/h 75 % 0.0 in /  0 mm 0.0 W/m2 CLR
07:37 12.2 °F /  -11 °C 7.9 °F /  -13.4 °C 1025.3 in /  34716.7 hPa NW 16.7 mph /  26.9 km/h 16.7 mph /  26.9 km/h 75 % 0.0 in /  0 mm 0.0 W/m2 CLR
07:39 12.2 °F /  -11 °C 7.7 °F /  -13.5 °C 1025.3 in /  34716.7 hPa NW 14.8 mph /  23.8 km/h 14.8 mph /  23.8 km/h 74 % 0.0 in /  0 mm 0.0 W/m2 CLR
07:44 12.2 °F /  -11 °C 7.9 °F /  -13.4 °C 1025.3 in /  34716.7 hPa NW 13.0 mph /  20.9 km/h 13.0 mph /  20.9 km/h 75 % 0.0 in /  0 mm 0.0 W/m2 CLR
07:46 12.2 °F /  -11 °C 7.9 °F /  -13.4 °C 1025.6 in /  34726.8 hPa NW 13.0 mph /  20.9 km/h 13.0 mph /  20.9 km/h 75 % 0.0 in /  0 mm 0.0 W/m2 CLR
07:48 12.2 °F /  -11 °C 7.9 °F /  -13.4 °C 1025.3 in /  34716.7 hPa NNW 13.0 mph /  20.9 km/h 13.0 mph /  20.9 km/h 75 % 0.0 in /  0 mm 0.0 W/m2 CLR
07:50 12.2 °F /  -11 °C 7.9 °F /  -13.4 °C 1025.3 in /  34716.7 hPa NW 14.8 mph /  23.8 km/h 14.8 mph /  23.8 km/h 75 % 0.0 in /  0 mm 0.0 W/m2 CLR
07:53 12.2 °F /  -11 °C 7.9 °F /  -13.4 °C 1025.6 in /  34726.8 hPa NW 16.7 mph /  26.9 km/h 16.7 mph /  26.9 km/h 75 % 0.0 in /  0 mm 0.0 W/m2 CLR
07:56 12.2 °F /  -11 °C 8.1 °F /  -13.3 °C 1025.6 in /  34726.8 hPa NW 14.8 mph /  23.8 km/h 14.8 mph /  23.8 km/h 76 % 0.0 in /  0 mm 0.0 W/m2 CLR
07:59 11.7 °F /  -11.3 °C 7.6 °F /  -13.6 °C 1025.6 in /  34726.8 hPa NNW 14.8 mph /  23.8 km/h 14.8 mph /  23.8 km/h 76 % 0.0 in /  0 mm 0.0 W/m2 CLR
08:03 12.2 °F /  -11 °C 8.1 °F /  -13.3 °C 1025.6 in /  34726.8 hPa NNW 14.8 mph /  23.8 km/h 14.8 mph /  23.8 km/h 76 % 0.0 in /  0 mm 0.0 W/m2 CLR
08:08 12.2 °F /  -11 °C 7.9 °F /  -13.4 °C 1025.6 in /  34726.8 hPa NW 16.7 mph /  26.9 km/h 16.7 mph /  26.9 km/h 75 % 0.0 in /  0 mm 0.0 W/m2 CLR
08:09 12.2 °F /  -11 °C 7.9 °F /  -13.4 °C 1025.6 in /  34726.8 hPa NNW 16.7 mph /  26.9 km/h 16.7 mph /  26.9 km/h 75 % 0.0 in /  0 mm 0.0 W/m2 CLR
08:10 12.2 °F /  -11 °C 7.9 °F /  -13.4 °C 1025.6 in /  34726.8 hPa NW 14.8 mph /  23.8 km/h 14.8 mph /  23.8 km/h 75 % 0.0 in /  0 mm 0.0 W/m2 CLR
08:13 12.2 °F /  -11 °C 7.9 °F /  -13.4 °C 1025.3 in /  34716.7 hPa NNW 16.7 mph /  26.9 km/h 16.7 mph /  26.9 km/h 75 % 0.0 in /  0 mm 0.0 W/m2 CLR
08:14 12.2 °F /  -11 °C 7.9 °F /  -13.4 °C 1025.3 in /  34716.7 hPa NNW 12.9 mph /  20.8 km/h 12.9 mph /  20.8 km/h 75 % 0.0 in /  0 mm 0.0 W/m2 CLR
08:17 12.2 °F /  -11 °C 7.9 °F /  -13.4 °C 1025.3 in /  34716.7 hPa NW 14.8 mph /  23.8 km/h 14.8 mph /  23.8 km/h 75 % 0.0 in /  0 mm 0.0 W/m2 OVC
08:19 12.2 °F /  -11 °C 7.9 °F /  -13.4 °C 1025.3 in /  34716.7 hPa NNW 16.7 mph /  26.9 km/h 16.7 mph /  26.9 km/h 75 % 0.0 in /  0 mm 0.0 W/m2 OVC
08:20 12.2 °F /  -11 °C 7.7 °F /  -13.5 °C 1025.3 in /  34716.7 hPa NNW 16.7 mph /  26.9 km/h 16.7 mph /  26.9 km/h 74 % 0.0 in /  0 mm 0.0 W/m2 OVC
08:24 12.2 °F /  -11 °C 7.7 °F /  -13.5 °C 1025.3 in /  34716.7 hPa NNW 20.4 mph /  32.8 km/h 20.4 mph /  32.8 km/h 74 % 0.0 in /  0 mm 0.0 W/m2 OVC
08:27 12.2 °F /  -11 °C 7.7 °F /  -13.5 °C 1025.3 in /  34716.7 hPa NW 17.7 mph /  28.5 km/h 17.7 mph /  28.5 km/h 74 % 0.0 in /  0 mm 5.0 W/m2 OVC
08:31 12.2 °F /  -11 °C 7.5 °F /  -13.6 °C 1025.3 in /  34716.7 hPa NW 20.4 mph /  32.8 km/h 20.4 mph /  32.8 km/h 73 % 0.0 in /  0 mm 7.0 W/m2 BKN
08:33 12.8 °F /  -10.7 °C 8.1 °F /  -13.3 °C 1025.3 in /  34716.7 hPa NW 24.1 mph /  38.8 km/h 24.1 mph /  38.8 km/h 73 % 0.0 in /  0 mm 9.0 W/m2 BKN
08:38 12.8 °F /  -10.7 °C 7.8 °F /  -13.4 °C 1025.3 in /  34716.7 hPa NNW 18.5 mph /  29.8 km/h 18.5 mph /  29.8 km/h 72 % 0.0 in /  0 mm 12.0 W/m2 BKN
08:39 12.8 °F /  -10.7 °C 7.8 °F /  -13.4 °C 1025.3 in /  34716.7 hPa NNW 22.2 mph /  35.7 km/h 22.2 mph /  35.7 km/h 72 % 0.0 in /  0 mm 12.0 W/m2 BKN
08:40 12.8 °F /  -10.7 °C 7.8 °F /  -13.4 °C 1025.6 in /  34726.8 hPa NW 22.2 mph /  35.7 km/h 22.2 mph /  35.7 km/h 72 % 0.0 in /  0 mm 14.0 W/m2 BKN
08:45 13.3 °F /  -10.4 °C 8.2 °F /  -13.2 °C 1025.3 in /  34716.7 hPa NW 20.4 mph /  32.8 km/h 20.4 mph /  32.8 km/h 71 % 0.0 in /  0 mm 16.0 W/m2 BKN
08:46 13.3 °F /  -10.4 °C 8.2 °F /  -13.2 °C 1025.3 in /  34716.7 hPa NNW 22.5 mph /  36.2 km/h 22.5 mph /  36.2 km/h 71 % 0.0 in /  0 mm 18.0 W/m2 BKN
08:48 13.3 °F /  -10.4 °C 8.2 °F /  -13.2 °C 1025.6 in /  34726.8 hPa NNW 25.9 mph /  41.7 km/h 25.9 mph /  41.7 km/h 71 % 0.0 in /  0 mm 18.0 W/m2 BKN
08:51 13.3 °F /  -10.4 °C 8.2 °F /  -13.2 °C 1025.3 in /  34716.7 hPa NNW 18.5 mph /  29.8 km/h 18.8 mph /  30.3 km/h 71 % 0.0 in /  0 mm 19.0 W/m2 BKN
08:53 13.3 °F /  -10.4 °C 8.2 °F /  -13.2 °C 1025.3 in /  34716.7 hPa NNW 29.6 mph /  47.6 km/h 29.6 mph /  47.6 km/h 71 % 0.0 in /  0 mm 21.0 W/m2 BKN
08:56 13.3 °F /  -10.4 °C 8.2 °F /  -13.2 °C 1025.6 in /  34726.8 hPa NNW 18.5 mph /  29.8 km/h 18.5 mph /  29.8 km/h 71 % 0.0 in /  0 mm 25.0 W/m2 BKN
09:01 13.3 °F /  -10.4 °C 8.0 °F /  -13.3 °C 1025.6 in /  34726.8 hPa NNW 27.8 mph /  44.7 km/h 27.8 mph /  44.7 km/h 70 % 0.0 in /  0 mm 32.0 W/m2 BKN
09:02 13.9 °F /  -10.1 °C 8.7 °F /  -12.9 °C 1025.6 in /  34726.8 hPa NNW 27.8 mph /  44.7 km/h 27.8 mph /  44.7 km/h 71 % 0.0 in /  0 mm 35.0 W/m2 BKN
09:05 13.9 °F /  -10.1 °C 8.5 °F /  -13.1 °C 1025.6 in /  34726.8 hPa North 29.6 mph /  47.6 km/h 29.6 mph /  47.6 km/h 70 % 0.0 in /  0 mm 40.0 W/m2 BKN
09:07 13.9 °F /  -10.1 °C 8.5 °F /  -13.1 °C 1025.6 in /  34726.8 hPa NNW 37.0 mph /  59.5 km/h 37.0 mph /  59.5 km/h 70 % 0.0 in /  0 mm 44.0 W/m2 BKN
09:12 13.9 °F /  -10.1 °C 8.3 °F /  -13.2 °C 1026.0 in /  34740.4 hPa North 29.6 mph /  47.6 km/h 29.6 mph /  47.6 km/h 69 % 0.0 in /  0 mm 58.0 W/m2 SCT
09:14 14.4 °F /  -9.8 °C 8.8 °F /  -12.9 °C 1025.6 in /  34726.8 hPa NNW 25.9 mph /  41.7 km/h 25.9 mph /  41.7 km/h 69 % 0.0 in /  0 mm 60.0 W/m2 SCT
09:18 14.4 °F /  -9.8 °C 8.6 °F /  -13 °C 1026.0 in /  34740.4 hPa NW 33.3 mph /  53.6 km/h 33.3 mph /  53.6 km/h 68 % 0.0 in /  0 mm 70.0 W/m2 FEW
09:19 14.4 °F /  -9.8 °C 8.6 °F /  -13 °C 1025.6 in /  34726.8 hPa North 33.3 mph /  53.6 km/h 33.3 mph /  53.6 km/h 68 % 0.0 in /  0 mm 70.0 W/m2 FEW
09:24 14.4 °F /  -9.8 °C 8.6 °F /  -13 °C 1026.0 in /  34740.4 hPa North 31.5 mph /  50.7 km/h 31.5 mph /  50.7 km/h 68 % 0.0 in /  0 mm 84.0 W/m2 FEW
09:27 14.4 °F /  -9.8 °C 8.4 °F /  -13.1 °C 1025.6 in /  34726.8 hPa NNW 31.5 mph /  50.7 km/h 31.5 mph /  50.7 km/h 67 % 0.0 in /  0 mm 90.0 W/m2 FEW
09:29 14.4 °F /  -9.8 °C 8.4 °F /  -13.1 °C 1025.6 in /  34726.8 hPa NNW 24.1 mph /  38.8 km/h 24.1 mph /  38.8 km/h 67 % 0.0 in /  0 mm 95.0 W/m2 FEW
09:34 15.0 °F /  -9.4 °C 8.9 °F /  -12.8 °C 1025.6 in /  34726.8 hPa NW 31.5 mph /  50.7 km/h 31.5 mph /  50.7 km/h 67 % 0.0 in /  0 mm 109.0 W/m2 CLR
09:38 14.4 °F /  -9.8 °C 8.4 °F /  -13.1 °C 1025.6 in /  34726.8 hPa North 27.8 mph /  44.7 km/h 27.8 mph /  44.7 km/h 67 % 0.0 in /  0 mm 130.0 W/m2 CLR
09:43 15.0 °F /  -9.4 °C 8.9 °F /  -12.8 °C 1025.6 in /  34726.8 hPa NW 31.5 mph /  50.7 km/h 31.5 mph /  50.7 km/h 67 % 0.0 in /  0 mm 142.0 W/m2 CLR
09:46 15.0 °F /  -9.4 °C 8.9 °F /  -12.8 °C 1025.6 in /  34726.8 hPa NNW 27.8 mph /  44.7 km/h 27.8 mph /  44.7 km/h 67 % 0.0 in /  0 mm 151.0 W/m2 CLR
09:48 15.0 °F /  -9.4 °C 8.7 °F /  -12.9 °C 1025.6 in /  34726.8 hPa NNW 38.9 mph /  62.6 km/h 38.9 mph /  62.6 km/h 66 % 0.0 in /  0 mm 158.0 W/m2 CLR
09:52 15.0 °F /  -9.4 °C 8.7 °F /  -12.9 °C 1025.6 in /  34726.8 hPa NNW 35.2 mph /  56.6 km/h 35.2 mph /  56.6 km/h 66 % 0.0 in /  0 mm 165.0 W/m2 CLR
09:54 15.0 °F /  -9.4 °C 8.7 °F /  -12.9 °C 1025.6 in /  34726.8 hPa NNW 31.5 mph /  50.7 km/h 31.5 mph /  50.7 km/h 66 % 0.0 in /  0 mm 174.0 W/m2 CLR
09:58 15.0 °F /  -9.4 °C 8.7 °F /  -12.9 °C 1025.6 in /  34726.8 hPa NNW 31.5 mph /  50.7 km/h 31.5 mph /  50.7 km/h 66 % 0.0 in /  0 mm 178.0 W/m2 CLR
10:01 15.0 °F /  -9.4 °C 8.4 °F /  -13.1 °C 1025.6 in /  34726.8 hPa NNW 31.5 mph /  50.7 km/h 31.5 mph /  50.7 km/h 65 % 0.0 in /  0 mm 181.0 W/m2 CLR
10:05 15.6 °F /  -9.1 °C 9.0 °F /  -12.8 °C 1025.6 in /  34726.8 hPa NW 31.5 mph /  50.7 km/h 31.5 mph /  50.7 km/h 65 % 0.0 in /  0 mm 163.0 W/m2 CLR
10:10 15.6 °F /  -9.1 °C 9.0 °F /  -12.8 °C 1025.6 in /  34726.8 hPa NNW 35.2 mph /  56.6 km/h 35.2 mph /  56.6 km/h 65 % 0.0 in /  0 mm 148.0 W/m2 CLR
10:11 15.6 °F /  -9.1 °C 9.0 °F /  -12.8 °C 1025.6 in /  34726.8 hPa NW 35.4 mph /  57 km/h 35.4 mph /  57 km/h 65 % 0.0 in /  0 mm 163.0 W/m2 CLR
10:13 15.6 °F /  -9.1 °C 9.0 °F /  -12.8 °C 1025.3 in /  34716.7 hPa NNW 37.0 mph /  59.5 km/h 37.0 mph /  59.5 km/h 65 % 0.0 in /  0 mm 213.0 W/m2 CLR
10:18 15.6 °F /  -9.1 °C 8.8 °F /  -12.9 °C 1025.3 in /  34716.7 hPa NNW 38.6 mph /  62.1 km/h 38.6 mph /  62.1 km/h 64 % 0.0 in /  0 mm 153.0 W/m2 CLR
10:20 15.6 °F /  -9.1 °C 8.8 °F /  -12.9 °C 1025.3 in /  34716.7 hPa NW 38.9 mph /  62.6 km/h 38.9 mph /  62.6 km/h 64 % 0.0 in /  0 mm 146.0 W/m2 CLR
10:25 16.1 °F /  -8.8 °C 9.1 °F /  -12.7 °C 1025.3 in /  34716.7 hPa NNW 45.1 mph /  72.6 km/h 45.1 mph /  72.6 km/h 63 % 0.0 in /  0 mm 234.0 W/m2 CLR
10:30 16.1 °F /  -8.8 °C 9.1 °F /  -12.7 °C 1025.3 in /  34716.7 hPa NW 42.6 mph /  68.6 km/h 42.6 mph /  68.6 km/h 63 % 0.0 in /  0 mm 250.0 W/m2 CLR
10:31 16.1 °F /  -8.8 °C 9.1 °F /  -12.7 °C 1025.3 in /  34716.7 hPa NW 35.4 mph /  57 km/h 35.4 mph /  57 km/h 63 % 0.0 in /  0 mm 253.0 W/m2 CLR
10:36 16.1 °F /  -8.8 °C 8.8 °F /  -12.9 °C 1025.3 in /  34716.7 hPa NW 38.9 mph /  62.6 km/h 38.9 mph /  62.6 km/h 62 % 0.0 in /  0 mm 265.0 W/m2 CLR
10:37 16.1 °F /  -8.8 °C 8.8 °F /  -12.9 °C 1025.3 in /  34716.7 hPa NW 33.3 mph /  53.6 km/h 33.3 mph /  53.6 km/h 62 % 0.0 in /  0 mm 269.0 W/m2 CLR
10:42 16.1 °F /  -8.8 °C 8.6 °F /  -13 °C 1025.3 in /  34716.7 hPa NW 37.0 mph /  59.5 km/h 37.0 mph /  59.5 km/h 61 % 0.0 in /  0 mm 281.0 W/m2 CLR
10:44 16.1 °F /  -8.8 °C 8.6 °F /  -13 °C 1025.3 in /  34716.7 hPa NW 33.3 mph /  53.6 km/h 33.3 mph /  53.6 km/h 61 % 0.0 in /  0 mm 285.0 W/m2 CLR
10:45 16.7 °F /  -8.5 °C 9.1 °F /  -12.7 °C 1025.3 in /  34716.7 hPa NW 35.2 mph /  56.6 km/h 35.2 mph /  56.6 km/h 61 % 0.0 in /  0 mm 288.0 W/m2 CLR
10:49 16.7 °F /  -8.5 °C 8.9 °F /  -12.8 °C 1025.3 in /  34716.7 hPa NW 27.8 mph /  44.7 km/h 27.8 mph /  44.7 km/h 60 % 0.0 in /  0 mm 294.0 W/m2 CLR
10:54 16.7 °F /  -8.5 °C 8.6 °F /  -13 °C 1025.3 in /  34716.7 hPa NNW 40.7 mph /  65.5 km/h 40.7 mph /  65.5 km/h 59 % 0.0 in /  0 mm 306.0 W/m2 CLR
10:56 16.7 °F /  -8.5 °C 8.6 °F /  -13 °C 1025.3 in /  34716.7 hPa NNW 27.8 mph /  44.7 km/h 27.8 mph /  44.7 km/h 59 % 0.0 in /  0 mm 309.0 W/m2 CLR
10:57 16.7 °F /  -8.5 °C 8.6 °F /  -13 °C 1025.3 in /  34716.7 hPa NNW 27.8 mph /  44.7 km/h 27.8 mph /  44.7 km/h 59 % 0.0 in /  0 mm 309.0 W/m2 CLR
10:58 17.2 °F /  -8.2 °C 8.9 °F /  -12.8 °C 1025.3 in /  34716.7 hPa NNW 42.6 mph /  68.6 km/h 42.6 mph /  68.6 km/h 58 % 0.0 in /  0 mm 315.0 W/m2 CLR
11:02 17.2 °F /  -8.2 °C 8.9 °F /  -12.8 °C 1025.3 in /  34716.7 hPa NW 40.7 mph /  65.5 km/h 40.7 mph /  65.5 km/h 58 % 0.0 in /  0 mm 323.0 W/m2 CLR
11:05 17.2 °F /  -8.2 °C 8.9 °F /  -12.8 °C 1025.3 in /  34716.7 hPa NNW 29.6 mph /  47.6 km/h 29.6 mph /  47.6 km/h 58 % 0.0 in /  0 mm 327.0 W/m2 CLR
11:07 17.2 °F /  -8.2 °C 8.6 °F /  -13 °C 1025.3 in /  34716.7 hPa NW 44.4 mph /  71.5 km/h 44.4 mph /  71.5 km/h 57 % 0.0 in /  0 mm 332.0 W/m2 CLR
11:12 17.2 °F /  -8.2 °C 8.6 °F /  -13 °C 1025.3 in /  34716.7 hPa NNW 37.0 mph /  59.5 km/h 37.0 mph /  59.5 km/h 57 % 0.0 in /  0 mm 339.0 W/m2 CLR
11:17 17.8 °F /  -7.9 °C 8.9 °F /  -12.8 °C 1025.3 in /  34716.7 hPa NW 44.4 mph /  71.5 km/h 44.4 mph /  71.5 km/h 56 % 0.0 in /  0 mm 339.0 W/m2 CLR
11:20 17.8 °F /  -7.9 °C 8.9 °F /  -12.8 °C 1025.3 in /  34716.7 hPa NNW 38.9 mph /  62.6 km/h 38.9 mph /  62.6 km/h 56 % 0.0 in /  0 mm 345.0 W/m2 CLR
11:25 17.8 °F /  -7.9 °C 8.9 °F /  -12.8 °C 1024.9 in /  34703.1 hPa NW 38.9 mph /  62.6 km/h 38.9 mph /  62.6 km/h 56 % 0.0 in /  0 mm 352.0 W/m2 CLR
11:26 17.8 °F /  -7.9 °C 8.9 °F /  -12.8 °C 1025.3 in /  34716.7 hPa NW 50.0 mph /  80.5 km/h 50.0 mph /  80.5 km/h 56 % 0.0 in /  0 mm 355.0 W/m2 CLR
11:31 17.8 °F /  -7.9 °C 8.6 °F /  -13 °C 1025.3 in /  34716.7 hPa NW 35.2 mph /  56.6 km/h 35.2 mph /  56.6 km/h 55 % 0.0 in /  0 mm 364.0 W/m2 CLR
11:35 17.8 °F /  -7.9 °C 8.6 °F /  -13 °C 1024.9 in /  34703.1 hPa NW 27.4 mph /  44.1 km/h 27.4 mph /  44.1 km/h 55 % 0.0 in /  0 mm 371.0 W/m2 CLR
11:39 17.8 °F /  -7.9 °C 8.1 °F /  -13.3 °C 1024.9 in /  34703.1 hPa NNW 40.7 mph /  65.5 km/h 40.7 mph /  65.5 km/h 53 % 0.0 in /  0 mm 373.0 W/m2 CLR
11:41 18.3 °F /  -7.6 °C 8.6 °F /  -13 °C 1024.9 in /  34703.1 hPa NW 33.3 mph /  53.6 km/h 33.3 mph /  53.6 km/h 53 % 0.0 in /  0 mm 376.0 W/m2 CLR
11:44 18.3 °F /  -7.6 °C 8.6 °F /  -13 °C 1024.9 in /  34703.1 hPa NW 40.7 mph /  65.5 km/h 40.7 mph /  65.5 km/h 53 % 0.0 in /  0 mm 380.0 W/m2 CLR
11:46 18.3 °F /  -7.6 °C 8.6 °F /  -13 °C 1024.9 in /  34703.1 hPa NW 29.6 mph /  47.6 km/h 29.6 mph /  47.6 km/h 53 % 0.0 in /  0 mm 383.0 W/m2 CLR
11:49 18.3 °F /  -7.6 °C 8.3 °F /  -13.2 °C 1024.9 in /  34703.1 hPa NW 33.3 mph /  53.6 km/h 33.3 mph /  53.6 km/h 52 % 0.0 in /  0 mm 385.0 W/m2 CLR
11:50 18.3 °F /  -7.6 °C 8.3 °F /  -13.2 °C 1024.9 in /  34703.1 hPa NW 33.3 mph /  53.6 km/h 33.3 mph /  53.6 km/h 52 % 0.0 in /  0 mm 387.0 W/m2 CLR
11:55 18.3 °F /  -7.6 °C 8.3 °F /  -13.2 °C 1024.9 in /  34703.1 hPa NW 42.6 mph /  68.6 km/h 42.6 mph /  68.6 km/h 52 % 0.0 in /  0 mm 390.0 W/m2 CLR
11:56 18.3 °F /  -7.6 °C 8.3 °F /  -13.2 °C 1024.6 in /  34693 hPa NW 38.9 mph /  62.6 km/h 38.9 mph /  62.6 km/h 52 % 0.0 in /  0 mm 396.0 W/m2 CLR
11:59 18.3 °F /  -7.6 °C 8.3 °F /  -13.2 °C 1024.6 in /  34693 hPa NNW 33.3 mph /  53.6 km/h 33.3 mph /  53.6 km/h 52 % 0.0 in /  0 mm 397.0 W/m2 CLR
12:04 18.9 °F /  -7.3 °C 8.5 °F /  -13.1 °C 1024.6 in /  34693 hPa North 31.5 mph /  50.7 km/h 31.5 mph /  50.7 km/h 51 % 0.0 in /  0 mm 406.0 W/m2 CLR
12:08 18.9 °F /  -7.3 °C 8.2 °F /  -13.2 °C 1024.6 in /  34693 hPa North 38.9 mph /  62.6 km/h 38.9 mph /  62.6 km/h 50 % 0.0 in /  0 mm 410.0 W/m2 CLR
12:11 18.9 °F /  -7.3 °C 8.2 °F /  -13.2 °C 1024.6 in /  34693 hPa NNW 46.3 mph /  74.5 km/h 46.3 mph /  74.5 km/h 50 % 0.0 in /  0 mm 413.0 W/m2 CLR
12:13 18.9 °F /  -7.3 °C 8.2 °F /  -13.2 °C 1024.6 in /  34693 hPa NW 53.7 mph /  86.4 km/h 53.7 mph /  86.4 km/h 50 % 0.0 in /  0 mm 418.0 W/m2 CLR
12:18 18.9 °F /  -7.3 °C 8.2 °F /  -13.2 °C 1024.6 in /  34693 hPa NW 48.3 mph /  77.7 km/h 48.3 mph /  77.7 km/h 50 % 0.0 in /  0 mm 417.0 W/m2 CLR
12:19 18.9 °F /  -7.3 °C 8.2 °F /  -13.2 °C 1024.6 in /  34693 hPa North 46.3 mph /  74.5 km/h 46.3 mph /  74.5 km/h 50 % 0.0 in /  0 mm 417.0 W/m2 CLR
12:24 18.3 °F /  -7.6 °C 7.7 °F /  -13.5 °C 1024.6 in /  34693 hPa North 42.6 mph /  68.6 km/h 42.6 mph /  68.6 km/h 50 % 0.0 in /  0 mm 424.0 W/m2 CLR
12:26 18.9 °F /  -7.3 °C 8.2 °F /  -13.2 °C 1024.3 in /  34682.8 hPa NW 31.5 mph /  50.7 km/h 31.5 mph /  50.7 km/h 50 % 0.0 in /  0 mm 425.0 W/m2 CLR
12:29 18.9 °F /  -7.3 °C 8.2 °F /  -13.2 °C 1024.3 in /  34682.8 hPa NW 46.3 mph /  74.5 km/h 46.3 mph /  74.5 km/h 50 % 0.0 in /  0 mm 429.0 W/m2 CLR
12:31 18.9 °F /  -7.3 °C 8.2 °F /  -13.2 °C 1024.3 in /  34682.8 hPa NNW 42.6 mph /  68.6 km/h 42.6 mph /  68.6 km/h 50 % 0.0 in /  0 mm 429.0 W/m2 CLR
12:36 18.9 °F /  -7.3 °C 8.2 °F /  -13.2 °C 1024.3 in /  34682.8 hPa NNW 53.7 mph /  86.4 km/h 53.7 mph /  86.4 km/h 50 % 0.0 in /  0 mm 429.0 W/m2 CLR
12:40 18.9 °F /  -7.3 °C 8.2 °F /  -13.2 °C 1024.3 in /  34682.8 hPa NNW 40.7 mph /  65.5 km/h 40.7 mph /  65.5 km/h 50 % 0.0 in /  0 mm 434.0 W/m2 CLR
12:45 18.9 °F /  -7.3 °C 8.2 °F /  -13.2 °C 1023.9 in /  34669.3 hPa NNW 48.1 mph /  77.4 km/h 48.1 mph /  77.4 km/h 50 % 0.0 in /  0 mm 434.0 W/m2 CLR
12:47 18.9 °F /  -7.3 °C 8.2 °F /  -13.2 °C 1023.9 in /  34669.3 hPa NNW 37.0 mph /  59.5 km/h 37.0 mph /  59.5 km/h 50 % 0.0 in /  0 mm 436.0 W/m2 CLR
12:49 18.9 °F /  -7.3 °C 7.9 °F /  -13.4 °C 1023.9 in /  34669.3 hPa NNW 48.1 mph /  77.4 km/h 48.1 mph /  77.4 km/h 49 % 0.0 in /  0 mm 434.0 W/m2 CLR
12:54 18.9 °F /  -7.3 °C 8.2 °F /  -13.2 °C 1023.9 in /  34669.3 hPa NW 38.9 mph /  62.6 km/h 38.9 mph /  62.6 km/h 50 % 0.0 in /  0 mm 434.0 W/m2 CLR
12:56 18.9 °F /  -7.3 °C 8.2 °F /  -13.2 °C 1023.9 in /  34669.3 hPa North 43.4 mph /  69.8 km/h 43.4 mph /  69.8 km/h 50 % 0.0 in /  0 mm 434.0 W/m2 CLR
13:01 18.9 °F /  -7.3 °C 8.2 °F /  -13.2 °C 1023.9 in /  34669.3 hPa North 45.1 mph /  72.6 km/h 45.1 mph /  72.6 km/h 50 % 0.0 in /  0 mm 436.0 W/m2 CLR
13:03 18.9 °F /  -7.3 °C 7.9 °F /  -13.4 °C 1023.9 in /  34669.3 hPa NNW 48.1 mph /  77.4 km/h 48.1 mph /  77.4 km/h 49 % 0.0 in /  0 mm 434.0 W/m2 CLR
13:08 18.9 °F /  -7.3 °C 7.9 °F /  -13.4 °C 1023.6 in /  34659.1 hPa NNW 45.1 mph /  72.6 km/h 45.1 mph /  72.6 km/h 49 % 0.0 in /  0 mm 436.0 W/m2 CLR
13:13 18.9 °F /  -7.3 °C 7.9 °F /  -13.4 °C 1023.6 in /  34659.1 hPa NW 41.8 mph /  67.3 km/h 41.8 mph /  67.3 km/h 49 % 0.0 in /  0 mm 434.0 W/m2 CLR
13:14 18.9 °F /  -7.3 °C 7.9 °F /  -13.4 °C 1023.6 in /  34659.1 hPa NNW 40.2 mph /  64.7 km/h 40.2 mph /  64.7 km/h 49 % 0.0 in /  0 mm 434.0 W/m2 CLR
13:15 18.9 °F /  -7.3 °C 7.9 °F /  -13.4 °C 1023.6 in /  34659.1 hPa NNW 51.8 mph /  83.4 km/h 51.8 mph /  83.4 km/h 49 % 0.0 in /  0 mm 436.0 W/m2 CLR
13:16 18.9 °F /  -7.3 °C 7.9 °F /  -13.4 °C 1023.6 in /  34659.1 hPa NNW 48.1 mph /  77.4 km/h 48.1 mph /  77.4 km/h 49 % 0.0 in /  0 mm 436.0 W/m2 CLR
13:21 18.9 °F /  -7.3 °C 7.9 °F /  -13.4 °C 1023.6 in /  34659.1 hPa NNW 50.0 mph /  80.5 km/h 50.0 mph /  80.5 km/h 49 % 0.0 in /  0 mm 432.0 W/m2 CLR
13:22 18.9 °F /  -7.3 °C 7.9 °F /  -13.4 °C 1023.2 in /  34645.6 hPa NNW 50.0 mph /  80.5 km/h 50.0 mph /  80.5 km/h 49 % 0.0 in /  0 mm 425.0 W/m2 CLR
13:25 18.9 °F /  -7.3 °C 7.9 °F /  -13.4 °C 1023.2 in /  34645.6 hPa NNW 51.8 mph /  83.4 km/h 51.8 mph /  83.4 km/h 49 % 0.0 in /  0 mm 418.0 W/m2 CLR
13:28 18.9 °F /  -7.3 °C 7.6 °F /  -13.6 °C 1023.2 in /  34645.6 hPa NNW 53.7 mph /  86.4 km/h 53.7 mph /  86.4 km/h 48 % 0.0 in /  0 mm 424.0 W/m2 CLR
13:33 19.4 °F /  -7 °C 8.2 °F /  -13.2 °C 1023.2 in /  34645.6 hPa NNW 48.1 mph /  77.4 km/h 48.1 mph /  77.4 km/h 48 % 0.0 in /  0 mm 422.0 W/m2 CLR
13:34 19.4 °F /  -7 °C 8.2 °F /  -13.2 °C 1023.2 in /  34645.6 hPa NNW 51.8 mph /  83.4 km/h 51.8 mph /  83.4 km/h 48 % 0.0 in /  0 mm 425.0 W/m2 CLR
13:37 19.4 °F /  -7 °C 8.2 °F /  -13.2 °C 1023.2 in /  34645.6 hPa NNW 50.0 mph /  80.5 km/h 50.0 mph /  80.5 km/h 48 % 0.0 in /  0 mm 420.0 W/m2 CLR
13:38 19.4 °F /  -7 °C 8.2 °F /  -13.2 °C 1022.9 in /  34635.4 hPa WNW 50.0 mph /  80.5 km/h 50.0 mph /  80.5 km/h 48 % 0.0 in /  0 mm 418.0 W/m2 CLR
13:42 19.4 °F /  -7 °C 8.2 °F /  -13.2 °C 1023.2 in /  34645.6 hPa NNW 42.6 mph /  68.6 km/h 42.6 mph /  68.6 km/h 48 % 0.0 in /  0 mm 422.0 W/m2 CLR
13:47 19.4 °F /  -7 °C 8.2 °F /  -13.2 °C 1022.9 in /  34635.4 hPa WNW 51.8 mph /  83.4 km/h 51.8 mph /  83.4 km/h 48 % 0.0 in /  0 mm 417.0 W/m2 CLR
13:48 19.4 °F /  -7 °C 8.2 °F /  -13.2 °C 1023.2 in /  34645.6 hPa NW 37.0 mph /  59.5 km/h 37.0 mph /  59.5 km/h 48 % 0.0 in /  0 mm 420.0 W/m2 CLR
13:52 18.9 °F /  -7.3 °C 7.6 °F /  -13.6 °C 1023.2 in /  34645.6 hPa NNW 42.6 mph /  68.6 km/h 42.6 mph /  68.6 km/h 48 % 0.0 in /  0 mm 418.0 W/m2 CLR
13:55 19.4 °F /  -7 °C 8.2 °F /  -13.2 °C 1022.9 in /  34635.4 hPa NNW 38.9 mph /  62.6 km/h 38.9 mph /  62.6 km/h 48 % 0.0 in /  0 mm 418.0 W/m2 CLR
13:58 19.4 °F /  -7 °C 7.8 °F /  -13.4 °C 1022.9 in /  34635.4 hPa NNW 40.7 mph /  65.5 km/h 40.7 mph /  65.5 km/h 47 % 0.0 in /  0 mm 420.0 W/m2 CLR
13:59 19.4 °F /  -7 °C 7.8 °F /  -13.4 °C 1022.9 in /  34635.4 hPa NNW 40.7 mph /  65.5 km/h 40.7 mph /  65.5 km/h 47 % 0.0 in /  0 mm 420.0 W/m2 CLR
14:04 19.4 °F /  -7 °C 7.8 °F /  -13.4 °C 1022.9 in /  34635.4 hPa North 46.3 mph /  74.5 km/h 46.3 mph /  74.5 km/h 47 % 0.0 in /  0 mm 417.0 W/m2 CLR
14:09 19.4 °F /  -7 °C 7.5 °F /  -13.6 °C 1022.6 in /  34625.2 hPa NNW 46.3 mph /  74.5 km/h 46.3 mph /  74.5 km/h 46 % 0.0 in /  0 mm 403.0 W/m2 CLR
14:13 19.4 °F /  -7 °C 7.5 °F /  -13.6 °C 1022.6 in /  34625.2 hPa North 33.3 mph /  53.6 km/h 33.3 mph /  53.6 km/h 46 % 0.0 in /  0 mm 397.0 W/m2 CLR
14:16 19.4 °F /  -7 °C 7.5 °F /  -13.6 °C 1022.6 in /  34625.2 hPa NNW 33.3 mph /  53.6 km/h 33.3 mph /  53.6 km/h 46 % 0.0 in /  0 mm 396.0 W/m2 CLR
14:20 19.4 °F /  -7 °C 7.5 °F /  -13.6 °C 1022.6 in /  34625.2 hPa NW 35.2 mph /  56.6 km/h 35.2 mph /  56.6 km/h 46 % 0.0 in /  0 mm 383.0 W/m2 CLR
14:23 19.4 °F /  -7 °C 7.5 °F /  -13.6 °C 1022.6 in /  34625.2 hPa NW 20.9 mph /  33.6 km/h 20.9 mph /  33.6 km/h 46 % 0.0 in /  0 mm 388.0 W/m2 CLR
14:27 20.0 °F /  -6.7 °C 8.0 °F /  -13.3 °C 1022.6 in /  34625.2 hPa NW 40.7 mph /  65.5 km/h 40.7 mph /  65.5 km/h 46 % 0.0 in /  0 mm 385.0 W/m2 CLR
14:28 20.0 °F /  -6.7 °C 7.7 °F /  -13.5 °C 1022.6 in /  34625.2 hPa NNW 37.0 mph /  59.5 km/h 37.0 mph /  59.5 km/h 45 % 0.0 in /  0 mm 385.0 W/m2 CLR
14:33 19.4 °F /  -7 °C 7.5 °F /  -13.6 °C 1022.6 in /  34625.2 hPa NNW 35.2 mph /  56.6 km/h 35.2 mph /  56.6 km/h 46 % 0.0 in /  0 mm 374.0 W/m2 CLR
14:35 19.4 °F /  -7 °C 7.5 °F /  -13.6 °C 1022.2 in /  34611.7 hPa NNW 32.2 mph /  51.8 km/h 32.2 mph /  51.8 km/h 46 % 0.0 in /  0 mm 371.0 W/m2 CLR
14:40 19.4 °F /  -7 °C 7.2 °F /  -13.8 °C 1022.6 in /  34625.2 hPa North 53.7 mph /  86.4 km/h 53.7 mph /  86.4 km/h 45 % 0.0 in /  0 mm 364.0 W/m2 CLR
14:43 20.0 °F /  -6.7 °C 7.7 °F /  -13.5 °C 1022.2 in /  34611.7 hPa North 43.4 mph /  69.8 km/h 43.4 mph /  69.8 km/h 45 % 0.0 in /  0 mm 362.0 W/m2 CLR
14:45 20.0 °F /  -6.7 °C 7.4 °F /  -13.7 °C 1022.2 in /  34611.7 hPa NW 46.3 mph /  74.5 km/h 46.3 mph /  74.5 km/h 44 % 0.0 in /  0 mm 360.0 W/m2 CLR
14:49 20.0 °F /  -6.7 °C 7.7 °F /  -13.5 °C 1022.2 in /  34611.7 hPa NNW 44.4 mph /  71.5 km/h 44.4 mph /  71.5 km/h 45 % 0.0 in /  0 mm 357.0 W/m2 CLR
14:54 19.4 °F /  -7 °C 6.9 °F /  -13.9 °C 1022.2 in /  34611.7 hPa North 31.5 mph /  50.7 km/h 31.5 mph /  50.7 km/h 44 % 0.0 in /  0 mm 350.0 W/m2 CLR
14:59 19.4 °F /  -7 °C 7.2 °F /  -13.8 °C 1022.2 in /  34611.7 hPa NNW 35.2 mph /  56.6 km/h 35.2 mph /  56.6 km/h 45 % 0.0 in /  0 mm 339.0 W/m2 CLR
15:04 20.0 °F /  -6.7 °C 7.4 °F /  -13.7 °C 1022.2 in /  34611.7 hPa North 37.0 mph /  59.5 km/h 37.0 mph /  59.5 km/h 44 % 0.0 in /  0 mm 332.0 W/m2 CLR
15:06 20.0 °F /  -6.7 °C 7.4 °F /  -13.7 °C 1022.2 in /  34611.7 hPa North 48.3 mph /  77.7 km/h 48.3 mph /  77.7 km/h 44 % 0.0 in /  0 mm 332.0 W/m2 CLR
15:09 20.0 °F /  -6.7 °C 7.4 °F /  -13.7 °C 1022.2 in /  34611.7 hPa NNW 42.6 mph /  68.6 km/h 42.6 mph /  68.6 km/h 44 % 0.0 in /  0 mm 327.0 W/m2 CLR
15:12 20.0 °F /  -6.7 °C 7.7 °F /  -13.5 °C 1022.2 in /  34611.7 hPa NNW 38.9 mph /  62.6 km/h 38.9 mph /  62.6 km/h 45 % 0.0 in /  0 mm 320.0 W/m2 CLR
15:16 20.0 °F /  -6.7 °C 7.4 °F /  -13.7 °C 1022.2 in /  34611.7 hPa North 31.5 mph /  50.7 km/h 31.5 mph /  50.7 km/h 44 % 0.0 in /  0 mm 313.0 W/m2 CLR
15:17 20.0 °F /  -6.7 °C 7.4 °F /  -13.7 °C 1022.2 in /  34611.7 hPa North 37.0 mph /  59.5 km/h 37.0 mph /  59.5 km/h 44 % 0.0 in /  0 mm 311.0 W/m2 CLR
15:18 20.0 °F /  -6.7 °C 7.4 °F /  -13.7 °C 1022.2 in /  34611.7 hPa North 31.5 mph /  50.7 km/h 31.5 mph /  50.7 km/h 44 % 0.0 in /  0 mm 309.0 W/m2 CLR
15:23 20.0 °F /  -6.7 °C 7.4 °F /  -13.7 °C 1021.9 in /  34601.5 hPa North 40.7 mph /  65.5 km/h 40.7 mph /  65.5 km/h 44 % 0.0 in /  0 mm 302.0 W/m2 CLR
15:25 20.0 °F /  -6.7 °C 7.4 °F /  -13.7 °C 1021.9 in /  34601.5 hPa NNW 35.2 mph /  56.6 km/h 35.2 mph /  56.6 km/h 44 % 0.0 in /  0 mm 297.0 W/m2 CLR
15:30 20.0 °F /  -6.7 °C 7.4 °F /  -13.7 °C 1021.9 in /  34601.5 hPa North 35.4 mph /  57 km/h 35.4 mph /  57 km/h 44 % 0.0 in /  0 mm 287.0 W/m2 CLR
15:32 20.0 °F /  -6.7 °C 7.4 °F /  -13.7 °C 1021.9 in /  34601.5 hPa NNW 35.2 mph /  56.6 km/h 35.2 mph /  56.6 km/h 44 % 0.0 in /  0 mm 285.0 W/m2 CLR
15:34 19.4 °F /  -7 °C 6.9 °F /  -13.9 °C 1021.9 in /  34601.5 hPa NNW 33.3 mph /  53.6 km/h 33.3 mph /  53.6 km/h 44 % 0.0 in /  0 mm 281.0 W/m2 CLR
15:39 19.4 °F /  -7 °C 6.9 °F /  -13.9 °C 1021.6 in /  34591.4 hPa North 42.6 mph /  68.6 km/h 42.6 mph /  68.6 km/h 44 % 0.0 in /  0 mm 272.0 W/m2 CLR
15:44 19.4 °F /  -7 °C 6.9 °F /  -13.9 °C 1021.6 in /  34591.4 hPa North 38.9 mph /  62.6 km/h 38.9 mph /  62.6 km/h 44 % 0.0 in /  0 mm 260.0 W/m2 CLR
15:48 19.4 °F /  -7 °C 6.9 °F /  -13.9 °C 1021.6 in /  34591.4 hPa NNW 33.3 mph /  53.6 km/h 33.3 mph /  53.6 km/h 44 % 0.0 in /  0 mm 251.0 W/m2 CLR
15:51 19.4 °F /  -7 °C 6.9 °F /  -13.9 °C 1021.6 in /  34591.4 hPa North 29.6 mph /  47.6 km/h 29.6 mph /  47.6 km/h 44 % 0.0 in /  0 mm 241.0 W/m2 CLR
15:56 19.4 °F /  -7 °C 6.9 °F /  -13.9 °C 1021.6 in /  34591.4 hPa NNW 38.9 mph /  62.6 km/h 38.9 mph /  62.6 km/h 44 % 0.0 in /  0 mm 229.0 W/m2 CLR
16:01 19.4 °F /  -7 °C 6.9 °F /  -13.9 °C 1021.6 in /  34591.4 hPa North 40.7 mph /  65.5 km/h 40.7 mph /  65.5 km/h 44 % 0.0 in /  0 mm 216.0 W/m2 CLR
16:06 18.9 °F /  -7.3 °C 6.4 °F /  -14.2 °C 1021.6 in /  34591.4 hPa NNW 35.2 mph /  56.6 km/h 35.2 mph /  56.6 km/h 44 % 0.0 in /  0 mm 206.0 W/m2 CLR
16:11 18.9 °F /  -7.3 °C 6.7 °F /  -14.1 °C 1021.6 in /  34591.4 hPa North 32.2 mph /  51.8 km/h 32.2 mph /  51.8 km/h 45 % 0.0 in /  0 mm 185.0 W/m2 CLR
16:12 18.9 °F /  -7.3 °C 6.7 °F /  -14.1 °C 1021.6 in /  34591.4 hPa NW 31.5 mph /  50.7 km/h 31.5 mph /  50.7 km/h 45 % 0.0 in /  0 mm 181.0 W/m2 CLR
16:15 18.9 °F /  -7.3 °C 6.4 °F /  -14.2 °C 1021.6 in /  34591.4 hPa NNW 33.3 mph /  53.6 km/h 33.3 mph /  53.6 km/h 44 % 0.0 in /  0 mm 176.0 W/m2 CLR
16:17 18.9 °F /  -7.3 °C 6.4 °F /  -14.2 °C 1021.6 in /  34591.4 hPa North 33.3 mph /  53.6 km/h 33.3 mph /  53.6 km/h 44 % 0.0 in /  0 mm 172.0 W/m2 CLR
16:22 18.9 °F /  -7.3 °C 6.7 °F /  -14.1 °C 1021.6 in /  34591.4 hPa NNW 27.8 mph /  44.7 km/h 27.8 mph /  44.7 km/h 45 % 0.0 in /  0 mm 153.0 W/m2 CLR
16:24 18.9 °F /  -7.3 °C 6.7 °F /  -14.1 °C 1021.6 in /  34591.4 hPa NNW 22.2 mph /  35.7 km/h 22.2 mph /  35.7 km/h 45 % 0.0 in /  0 mm 146.0 W/m2 CLR
16:29 18.9 °F /  -7.3 °C 6.7 °F /  -14.1 °C 1021.2 in /  34577.8 hPa NNW 18.5 mph /  29.8 km/h 18.5 mph /  29.8 km/h 45 % 0.0 in /  0 mm 139.0 W/m2 CLR
16:37 18.3 °F /  -7.6 °C 6.2 °F /  -14.3 °C 1021.6 in /  34591.4 hPa NNW 24.1 mph /  38.8 km/h 24.1 mph /  38.8 km/h 45 % 0.0 in /  0 mm 120.0 W/m2 CLR
16:39 18.3 °F /  -7.6 °C 6.2 °F /  -14.3 °C 1021.6 in /  34591.4 hPa NNW 18.5 mph /  29.8 km/h 18.5 mph /  29.8 km/h 45 % 0.0 in /  0 mm 114.0 W/m2 CLR
16:44 18.3 °F /  -7.6 °C 6.2 °F /  -14.3 °C 1021.2 in /  34577.8 hPa NNW 20.9 mph /  33.6 km/h 20.9 mph /  33.6 km/h 45 % 0.0 in /  0 mm 100.0 W/m2 CLR
16:48 18.3 °F /  -7.6 °C 6.2 °F /  -14.3 °C 1021.2 in /  34577.8 hPa NNW 29.6 mph /  47.6 km/h 29.6 mph /  47.6 km/h 45 % 0.0 in /  0 mm 93.0 W/m2 CLR
16:53 18.3 °F /  -7.6 °C 6.2 °F /  -14.3 °C 1021.2 in /  34577.8 hPa North 29.6 mph /  47.6 km/h 29.6 mph /  47.6 km/h 45 % 0.0 in /  0 mm 81.0 W/m2 FEW
16:56 18.3 °F /  -7.6 °C 6.2 °F /  -14.3 °C 1021.2 in /  34577.8 hPa NNW 22.2 mph /  35.7 km/h 22.2 mph /  35.7 km/h 45 % 0.0 in /  0 mm 67.0 W/m2 FEW
17:01 18.3 °F /  -7.6 °C 6.5 °F /  -14.2 °C 1021.2 in /  34577.8 hPa NW 20.4 mph /  32.8 km/h 20.4 mph /  32.8 km/h 46 % 0.0 in /  0 mm 54.0 W/m2 SCT
17:04 18.3 °F /  -7.6 °C 6.5 °F /  -14.2 °C 1021.2 in /  34577.8 hPa North 29.0 mph /  46.7 km/h 29.0 mph /  46.7 km/h 46 % 0.0 in /  0 mm 53.0 W/m2 SCT
17:09 17.8 °F /  -7.9 °C 6.0 °F /  -14.4 °C 1021.6 in /  34591.4 hPa NNW 25.9 mph /  41.7 km/h 25.9 mph /  41.7 km/h 46 % 0.0 in /  0 mm 44.0 W/m2 BKN
17:14 17.8 °F /  -7.9 °C 6.3 °F /  -14.3 °C 1021.2 in /  34577.8 hPa NNW 18.5 mph /  29.8 km/h 18.5 mph /  29.8 km/h 47 % 0.0 in /  0 mm 35.0 W/m2 BKN
17:19 17.8 °F /  -7.9 °C 6.3 °F /  -14.3 °C 1021.6 in /  34591.4 hPa NNW 24.1 mph /  38.8 km/h 24.1 mph /  38.8 km/h 47 % 0.0 in /  0 mm 25.0 W/m2 BKN
17:23 17.8 °F /  -7.9 °C 6.6 °F /  -14.1 °C 1021.6 in /  34591.4 hPa NNW 27.8 mph /  44.7 km/h 27.8 mph /  44.7 km/h 48 % 0.0 in /  0 mm 21.0 W/m2 BKN
17:24 17.8 °F /  -7.9 °C 6.6 °F /  -14.1 °C 1021.6 in /  34591.4 hPa NW 16.7 mph /  26.9 km/h 16.7 mph /  26.9 km/h 48 % 0.0 in /  0 mm 19.0 W/m2 BKN
17:27 17.2 °F /  -8.2 °C 6.1 °F /  -14.4 °C 1021.6 in /  34591.4 hPa NW 22.5 mph /  36.2 km/h 22.5 mph /  36.2 km/h 48 % 0.0 in /  0 mm 16.0 W/m2 BKN
17:30 17.2 °F /  -8.2 °C 6.1 °F /  -14.4 °C 1021.6 in /  34591.4 hPa NW 25.7 mph /  41.4 km/h 25.7 mph /  41.4 km/h 48 % 0.0 in /  0 mm 16.0 W/m2 BKN
17:32 17.2 °F /  -8.2 °C 6.1 °F /  -14.4 °C 1021.6 in /  34591.4 hPa NW 25.9 mph /  41.7 km/h 25.9 mph /  41.7 km/h 48 % 0.0 in /  0 mm 14.0 W/m2 BKN
17:35 17.2 °F /  -8.2 °C 6.4 °F /  -14.2 °C 1021.6 in /  34591.4 hPa NNW 24.1 mph /  38.8 km/h 24.1 mph /  38.8 km/h 49 % 0.0 in /  0 mm 11.0 W/m2 BKN
17:36 17.2 °F /  -8.2 °C 6.4 °F /  -14.2 °C 1021.6 in /  34591.4 hPa NW 27.8 mph /  44.7 km/h 27.8 mph /  44.7 km/h 49 % 0.0 in /  0 mm 11.0 W/m2 BKN
17:42 16.7 °F /  -8.5 °C 5.9 °F /  -14.5 °C 1021.6 in /  34591.4 hPa NW 29.6 mph /  47.6 km/h 29.6 mph /  47.6 km/h 49 % 0.0 in /  0 mm 7.0 W/m2 BKN
17:43 16.7 °F /  -8.5 °C 5.9 °F /  -14.5 °C 1021.6 in /  34591.4 hPa NW 22.2 mph /  35.7 km/h 22.2 mph /  35.7 km/h 49 % 0.0 in /  0 mm 7.0 W/m2 BKN
17:47 16.7 °F /  -8.5 °C 6.2 °F /  -14.3 °C 1021.6 in /  34591.4 hPa NW 18.5 mph /  29.8 km/h 18.5 mph /  29.8 km/h 50 % 0.0 in /  0 mm 5.0 W/m2 OVC
17:57 16.7 °F /  -8.5 °C 6.2 °F /  -14.3 °C 1021.6 in /  34591.4 hPa NW 22.2 mph /  35.7 km/h 22.2 mph /  35.7 km/h 50 % 0.0 in /  0 mm 0.0 W/m2 CLR
17:58 16.7 °F /  -8.5 °C 6.2 °F /  -14.3 °C 1021.6 in /  34591.4 hPa NW 24.1 mph /  38.8 km/h 24.1 mph /  38.8 km/h 50 % 0.0 in /  0 mm 0.0 W/m2 CLR
17:59 16.7 °F /  -8.5 °C 6.2 °F /  -14.3 °C 1021.6 in /  34591.4 hPa NNW 20.4 mph /  32.8 km/h 20.4 mph /  32.8 km/h 50 % 0.0 in /  0 mm 0.0 W/m2 CLR
18:04 16.1 °F /  -8.8 °C 5.9 °F /  -14.5 °C 1021.6 in /  34591.4 hPa NW 24.1 mph /  38.8 km/h 24.1 mph /  38.8 km/h 51 % 0.0 in /  0 mm 0.0 W/m2 CLR
18:05 16.1 °F /  -8.8 °C 5.9 °F /  -14.5 °C 1021.6 in /  34591.4 hPa NW 24.1 mph /  38.8 km/h 24.1 mph /  38.8 km/h 51 % 0.0 in /  0 mm 0.0 W/m2 CLR
18:10 16.1 °F /  -8.8 °C 6.2 °F /  -14.3 °C 1021.9 in /  34601.5 hPa WNW 27.8 mph /  44.7 km/h 27.8 mph /  44.7 km/h 52 % 0.0 in /  0 mm 0.0 W/m2 CLR
18:15 16.1 °F /  -8.8 °C 6.2 °F /  -14.3 °C 1021.9 in /  34601.5 hPa NW 22.5 mph /  36.2 km/h 22.5 mph /  36.2 km/h 52 % 0.0 in /  0 mm 0.0 W/m2 CLR
18:19 16.1 °F /  -8.8 °C 6.2 °F /  -14.3 °C 1021.9 in /  34601.5 hPa NW 22.2 mph /  35.7 km/h 22.2 mph /  35.7 km/h 52 % 0.0 in /  0 mm 0.0 W/m2 CLR
18:21 15.6 °F /  -9.1 °C 5.7 °F /  -14.6 °C 1021.9 in /  34601.5 hPa NW 18.5 mph /  29.8 km/h 18.5 mph /  29.8 km/h 52 % 0.0 in /  0 mm 0.0 W/m2 CLR
18:22 15.6 °F /  -9.1 °C 5.7 °F /  -14.6 °C 1021.9 in /  34601.5 hPa NW 18.5 mph /  29.8 km/h 18.5 mph /  29.8 km/h 52 % 0.0 in /  0 mm 0.0 W/m2 CLR
18:27 15.6 °F /  -9.1 °C 6.0 °F /  -14.4 °C 1021.9 in /  34601.5 hPa WNW 20.4 mph /  32.8 km/h 20.4 mph /  32.8 km/h 53 % 0.0 in /  0 mm 0.0 W/m2 CLR
18:30 15.6 °F /  -9.1 °C 6.0 °F /  -14.4 °C 1021.9 in /  34601.5 hPa WNW 16.7 mph /  26.9 km/h 16.7 mph /  26.9 km/h 53 % 0.0 in /  0 mm 0.0 W/m2 CLR
18:31 15.6 °F /  -9.1 °C 6.0 °F /  -14.4 °C 1021.9 in /  34601.5 hPa WNW 16.7 mph /  26.9 km/h 16.7 mph /  26.9 km/h 53 % 0.0 in /  0 mm 0.0 W/m2 CLR
18:32 15.6 °F /  -9.1 °C 6.0 °F /  -14.4 °C 1021.9 in /  34601.5 hPa WNW 16.7 mph /  26.9 km/h 16.7 mph /  26.9 km/h 53 % 0.0 in /  0 mm 0.0 W/m2 CLR
18:36 15.6 °F /  -9.1 °C 6.0 °F /  -14.4 °C 1021.9 in /  34601.5 hPa NW 22.2 mph /  35.7 km/h 22.2 mph /  35.7 km/h 53 % 0.0 in /  0 mm 0.0 W/m2 CLR
18:41 15.0 °F /  -9.4 °C 5.5 °F /  -14.7 °C 1021.9 in /  34601.5 hPa NW 18.5 mph /  29.8 km/h 18.5 mph /  29.8 km/h 53 % 0.0 in /  0 mm 0.0 W/m2 CLR
18:43 15.0 °F /  -9.4 °C 5.8 °F /  -14.6 °C 1021.9 in /  34601.5 hPa NW 27.8 mph /  44.7 km/h 27.8 mph /  44.7 km/h 54 % 0.0 in /  0 mm 0.0 W/m2 CLR
18:46 15.0 °F /  -9.4 °C 5.8 °F /  -14.6 °C 1022.2 in /  34611.7 hPa NW 20.4 mph /  32.8 km/h 20.4 mph /  32.8 km/h 54 % 0.0 in /  0 mm 0.0 W/m2 CLR
18:51 15.6 °F /  -9.1 °C 6.3 °F /  -14.3 °C 1022.2 in /  34611.7 hPa NW 20.4 mph /  32.8 km/h 20.4 mph /  32.8 km/h 54 % 0.0 in /  0 mm 0.0 W/m2 CLR
18:52 15.0 °F /  -9.4 °C 5.8 °F /  -14.6 °C 1022.2 in /  34611.7 hPa NW 22.2 mph /  35.7 km/h 22.2 mph /  35.7 km/h 54 % 0.0 in /  0 mm 0.0 W/m2 CLR
18:57 15.0 °F /  -9.4 °C 6.0 °F /  -14.4 °C 1022.2 in /  34611.7 hPa NW 20.4 mph /  32.8 km/h 20.4 mph /  32.8 km/h 55 % 0.0 in /  0 mm 0.0 W/m2 CLR
19:00 15.0 °F /  -9.4 °C 6.0 °F /  -14.4 °C 1022.2 in /  34611.7 hPa NNW 27.8 mph /  44.7 km/h 27.8 mph /  44.7 km/h 55 % 0.0 in /  0 mm 0.0 W/m2 CLR
19:05 15.0 °F /  -9.4 °C 6.0 °F /  -14.4 °C 1022.2 in /  34611.7 hPa NW 31.5 mph /  50.7 km/h 31.5 mph /  50.7 km/h 55 % 0.0 in /  0 mm 0.0 W/m2 CLR
19:10 15.0 °F /  -9.4 °C 6.0 °F /  -14.4 °C 1022.2 in /  34611.7 hPa NW 29.6 mph /  47.6 km/h 29.6 mph /  47.6 km/h 55 % 0.0 in /  0 mm 0.0 W/m2 CLR
19:11 15.0 °F /  -9.4 °C 6.0 °F /  -14.4 °C 1022.2 in /  34611.7 hPa WNW 29.6 mph /  47.6 km/h 29.6 mph /  47.6 km/h 55 % 0.0 in /  0 mm 0.0 W/m2 CLR
19:16 15.0 °F /  -9.4 °C 6.0 °F /  -14.4 °C 1022.2 in /  34611.7 hPa WNW 27.4 mph /  44.1 km/h 27.4 mph /  44.1 km/h 55 % 0.0 in /  0 mm 0.0 W/m2 CLR
19:21 15.0 °F /  -9.4 °C 6.3 °F /  -14.3 °C 1022.2 in /  34611.7 hPa NW 29.6 mph /  47.6 km/h 29.6 mph /  47.6 km/h 56 % 0.0 in /  0 mm 0.0 W/m2 CLR
19:24 15.0 °F /  -9.4 °C 6.3 °F /  -14.3 °C 1021.9 in /  34601.5 hPa WNW 33.3 mph /  53.6 km/h 33.3 mph /  53.6 km/h 56 % 0.0 in /  0 mm 0.0 W/m2 CLR
19:27 15.0 °F /  -9.4 °C 6.3 °F /  -14.3 °C 1021.9 in /  34601.5 hPa WNW 24.1 mph /  38.8 km/h 24.1 mph /  38.8 km/h 56 % 0.0 in /  0 mm 0.0 W/m2 CLR
19:29 15.0 °F /  -9.4 °C 6.3 °F /  -14.3 °C 1022.2 in /  34611.7 hPa NNW 22.5 mph /  36.2 km/h 22.5 mph /  36.2 km/h 56 % 0.0 in /  0 mm 0.0 W/m2 CLR
19:34 15.0 °F /  -9.4 °C 6.6 °F /  -14.1 °C 1021.9 in /  34601.5 hPa NW 25.9 mph /  41.7 km/h 25.9 mph /  41.7 km/h 57 % 0.0 in /  0 mm 0.0 W/m2 CLR
19:39 15.0 °F /  -9.4 °C 6.6 °F /  -14.1 °C 1022.2 in /  34611.7 hPa NW 24.1 mph /  38.8 km/h 24.1 mph /  38.8 km/h 57 % 0.0 in /  0 mm 0.0 W/m2 CLR
19:44 15.0 °F /  -9.4 °C 6.6 °F /  -14.1 °C 1022.2 in /  34611.7 hPa NW 31.5 mph /  50.7 km/h 31.5 mph /  50.7 km/h 57 % 0.0 in /  0 mm 0.0 W/m2 CLR
19:45 15.0 °F /  -9.4 °C 6.6 °F /  -14.1 °C 1022.2 in /  34611.7 hPa NW 27.8 mph /  44.7 km/h 27.8 mph /  44.7 km/h 57 % 0.0 in /  0 mm 0.0 W/m2 CLR
19:50 15.0 °F /  -9.4 °C 6.8 °F /  -14 °C 1021.9 in /  34601.5 hPa NW 31.5 mph /  50.7 km/h 31.5 mph /  50.7 km/h 58 % 0.0 in /  0 mm 0.0 W/m2 CLR
19:55 15.0 °F /  -9.4 °C 6.8 °F /  -14 °C 1021.9 in /  34601.5 hPa NW 29.6 mph /  47.6 km/h 29.6 mph /  47.6 km/h 58 % 0.0 in /  0 mm 0.0 W/m2 CLR
19:56 15.0 °F /  -9.4 °C 6.8 °F /  -14 °C 1021.9 in /  34601.5 hPa NW 29.6 mph /  47.6 km/h 29.6 mph /  47.6 km/h 58 % 0.0 in /  0 mm 0.0 W/m2 CLR
20:01 14.4 °F /  -9.8 °C 6.3 °F /  -14.3 °C 1021.9 in /  34601.5 hPa NW 25.9 mph /  41.7 km/h 25.9 mph /  41.7 km/h 58 % 0.0 in /  0 mm 0.0 W/m2 CLR
20:02 14.4 °F /  -9.8 °C 6.3 °F /  -14.3 °C 1021.9 in /  34601.5 hPa NW 29.6 mph /  47.6 km/h 29.6 mph /  47.6 km/h 58 % 0.0 in /  0 mm 0.0 W/m2 CLR
20:07 14.4 °F /  -9.8 °C 6.3 °F /  -14.3 °C 1021.9 in /  34601.5 hPa NW 24.1 mph /  38.8 km/h 24.1 mph /  38.8 km/h 58 % 0.0 in /  0 mm 0.0 W/m2 CLR
20:13 14.4 °F /  -9.8 °C 6.3 °F /  -14.3 °C 1021.9 in /  34601.5 hPa NW 29.6 mph /  47.6 km/h 29.6 mph /  47.6 km/h 58 % 0.0 in /  0 mm 0.0 W/m2 CLR
20:18 14.4 °F /  -9.8 °C 6.3 °F /  -14.3 °C 1021.9 in /  34601.5 hPa NW 27.8 mph /  44.7 km/h 27.8 mph /  44.7 km/h 58 % 0.0 in /  0 mm 0.0 W/m2 CLR
20:19 14.4 °F /  -9.8 °C 6.3 °F /  -14.3 °C 1021.9 in /  34601.5 hPa NW 27.8 mph /  44.7 km/h 27.8 mph /  44.7 km/h 58 % 0.0 in /  0 mm 0.0 W/m2 CLR
20:23 14.4 °F /  -9.8 °C 6.3 °F /  -14.3 °C 1021.9 in /  34601.5 hPa WNW 20.9 mph /  33.6 km/h 20.9 mph /  33.6 km/h 58 % 0.0 in /  0 mm 0.0 W/m2 CLR
20:27 14.4 °F /  -9.8 °C 6.5 °F /  -14.2 °C 1021.9 in /  34601.5 hPa NW 25.9 mph /  41.7 km/h 25.9 mph /  41.7 km/h 59 % 0.0 in /  0 mm 0.0 W/m2 CLR
20:30 14.4 °F /  -9.8 °C 6.5 °F /  -14.2 °C 1022.2 in /  34611.7 hPa NW 29.6 mph /  47.6 km/h 29.6 mph /  47.6 km/h 59 % 0.0 in /  0 mm 0.0 W/m2 CLR
20:33 13.9 °F /  -10.1 °C 6.0 °F /  -14.4 °C 1022.2 in /  34611.7 hPa NNW 31.5 mph /  50.7 km/h 31.5 mph /  50.7 km/h 59 % 0.0 in /  0 mm 0.0 W/m2 CLR
20:35 13.9 °F /  -10.1 °C 6.0 °F /  -14.4 °C 1022.2 in /  34611.7 hPa NNW 22.2 mph /  35.7 km/h 22.2 mph /  35.7 km/h 59 % 0.0 in /  0 mm 0.0 W/m2 CLR
20:40 14.4 °F /  -9.8 °C 6.5 °F /  -14.2 °C 1022.2 in /  34611.7 hPa NW 31.5 mph /  50.7 km/h 31.5 mph /  50.7 km/h 59 % 0.0 in /  0 mm 0.0 W/m2 CLR
20:41 14.4 °F /  -9.8 °C 6.5 °F /  -14.2 °C 1022.2 in /  34611.7 hPa NW 31.5 mph /  50.7 km/h 31.5 mph /  50.7 km/h 59 % 0.0 in /  0 mm 0.0 W/m2 CLR
20:44 14.4 °F /  -9.8 °C 6.5 °F /  -14.2 °C 1022.2 in /  34611.7 hPa NNW 20.4 mph /  32.8 km/h 20.4 mph /  32.8 km/h 59 % 0.0 in /  0 mm 0.0 W/m2 CLR
20:50 13.9 °F /  -10.1 °C 6.0 °F /  -14.4 °C 1022.2 in /  34611.7 hPa NNW 14.8 mph /  23.8 km/h 14.8 mph /  23.8 km/h 59 % 0.0 in /  0 mm 0.0 W/m2 CLR
20:55 13.9 °F /  -10.1 °C 6.0 °F /  -14.4 °C 1022.2 in /  34611.7 hPa West 14.8 mph /  23.8 km/h 14.8 mph /  23.8 km/h 59 % 0.0 in /  0 mm 0.0 W/m2 CLR
20:57 13.9 °F /  -10.1 °C 6.0 °F /  -14.4 °C 1022.2 in /  34611.7 hPa WNW 5.6 mph /  9 km/h 5.6 mph /  9 km/h 59 % 0.0 in /  0 mm 0.0 W/m2 CLR
21:02 13.9 °F /  -10.1 °C 6.0 °F /  -14.4 °C 1022.2 in /  34611.7 hPa WNW 13.0 mph /  20.9 km/h 13.0 mph /  20.9 km/h 59 % 0.0 in /  0 mm 0.0 W/m2 CLR
21:04 13.9 °F /  -10.1 °C 6.0 °F /  -14.4 °C 1022.2 in /  34611.7 hPa NW 13.0 mph /  20.9 km/h 13.0 mph /  20.9 km/h 59 % 0.0 in /  0 mm 0.0 W/m2 CLR
21:09 13.9 °F /  -10.1 °C 6.0 °F /  -14.4 °C 1022.2 in /  34611.7 hPa West 3.7 mph /  6 km/h 3.7 mph /  6 km/h 59 % 0.0 in /  0 mm 0.0 W/m2 CLR
21:11 13.9 °F /  -10.1 °C 6.0 °F /  -14.4 °C 1022.2 in /  34611.7 hPa Calm     59 % 0.0 in /  0 mm 0.0 W/m2 CLR
21:14 13.3 °F /  -10.4 °C 5.5 °F /  -14.7 °C 1022.2 in /  34611.7 hPa Calm     59 % 0.0 in /  0 mm 0.0 W/m2 CLR
21:16 13.3 °F /  -10.4 °C 5.7 °F /  -14.6 °C 1022.2 in /  34611.7 hPa West 11.1 mph /  17.9 km/h 11.1 mph /  17.9 km/h 60 % 0.0 in /  0 mm 0.0 W/m2 CLR
21:19 13.3 °F /  -10.4 °C 5.7 °F /  -14.6 °C 1022.2 in /  34611.7 hPa West 14.8 mph /  23.8 km/h 14.8 mph /  23.8 km/h 60 % 0.0 in /  0 mm 0.0 W/m2 CLR
21:20 13.3 °F /  -10.4 °C 5.7 °F /  -14.6 °C 1022.2 in /  34611.7 hPa WNW 14.8 mph /  23.8 km/h 14.8 mph /  23.8 km/h 60 % 0.0 in /  0 mm 0.0 W/m2 CLR
21:25 13.3 °F /  -10.4 °C 5.7 °F /  -14.6 °C 1022.2 in /  34611.7 hPa NW 16.7 mph /  26.9 km/h 16.7 mph /  26.9 km/h 60 % 0.0 in /  0 mm 0.0 W/m2 CLR
21:30 13.3 °F /  -10.4 °C 5.7 °F /  -14.6 °C 1022.2 in /  34611.7 hPa WNW 20.4 mph /  32.8 km/h 20.4 mph /  32.8 km/h 60 % 0.0 in /  0 mm 0.0 W/m2 CLR
21:33 13.3 °F /  -10.4 °C 5.7 °F /  -14.6 °C 1022.2 in /  34611.7 hPa WNW 14.8 mph /  23.8 km/h 14.8 mph /  23.8 km/h 60 % 0.0 in /  0 mm 0.0 W/m2 CLR
21:35 13.3 °F /  -10.4 °C 5.7 °F /  -14.6 °C 1022.2 in /  34611.7 hPa West 14.8 mph /  23.8 km/h 14.8 mph /  23.8 km/h 60 % 0.0 in /  0 mm 0.0 W/m2 CLR
21:37 13.3 °F /  -10.4 °C 5.7 °F /  -14.6 °C 1022.2 in /  34611.7 hPa WNW 11.1 mph /  17.9 km/h 11.1 mph /  17.9 km/h 60 % 0.0 in /  0 mm 0.0 W/m2 CLR
21:41 13.3 °F /  -10.4 °C 5.7 °F /  -14.6 °C 1022.2 in /  34611.7 hPa NW 14.8 mph /  23.8 km/h 14.8 mph /  23.8 km/h 60 % 0.0 in /  0 mm 0.0 W/m2 CLR
21:44 12.8 °F /  -10.7 °C 5.2 °F /  -14.9 °C 1022.2 in /  34611.7 hPa Calm     60 % 0.0 in /  0 mm 0.0 W/m2 CLR
21:49 12.2 °F /  -11 °C 4.9 °F /  -15.1 °C 1022.2 in /  34611.7 hPa Calm     61 % 0.0 in /  0 mm 0.0 W/m2 CLR
21:51 12.2 °F /  -11 °C 4.9 °F /  -15.1 °C 1021.9 in /  34601.5 hPa Calm   0.3 mph /  0.5 km/h 61 % 0.0 in /  0 mm 0.0 W/m2 CLR
21:54 11.7 °F /  -11.3 °C 4.4 °F /  -15.3 °C 1021.9 in /  34601.5 hPa WNW 8.0 mph /  12.9 km/h 8.0 mph /  12.9 km/h 61 % 0.0 in /  0 mm 0.0 W/m2 CLR
22:02 11.7 °F /  -11.3 °C 4.4 °F /  -15.3 °C 1021.9 in /  34601.5 hPa WNW 20.4 mph /  32.8 km/h 20.4 mph /  32.8 km/h 61 % 0.0 in /  0 mm 0.0 W/m2 CLR
22:09 12.2 °F /  -11 °C 4.7 °F /  -15.2 °C 1021.9 in /  34601.5 hPa WNW 25.9 mph /  41.7 km/h 25.9 mph /  41.7 km/h 60 % 0.0 in /  0 mm 0.0 W/m2 CLR
22:11 12.2 °F /  -11 °C 4.7 °F /  -15.2 °C 1021.9 in /  34601.5 hPa WNW 18.5 mph /  29.8 km/h 18.5 mph /  29.8 km/h 60 % 0.0 in /  0 mm 0.0 W/m2 CLR
22:13 12.2 °F /  -11 °C 4.7 °F /  -15.2 °C 1021.9 in /  34601.5 hPa West 16.7 mph /  26.9 km/h 16.7 mph /  26.9 km/h 60 % 0.0 in /  0 mm 0.0 W/m2 CLR
22:14 12.2 °F /  -11 °C 4.7 °F /  -15.2 °C 1021.6 in /  34591.4 hPa West 14.8 mph /  23.8 km/h 14.8 mph /  23.8 km/h 60 % 0.0 in /  0 mm 0.0 W/m2 CLR
22:19 12.2 °F /  -11 °C 4.7 °F /  -15.2 °C 1021.9 in /  34601.5 hPa NW 14.8 mph /  23.8 km/h 14.8 mph /  23.8 km/h 60 % 0.0 in /  0 mm 0.0 W/m2 CLR
22:22 12.2 °F /  -11 °C 4.7 °F /  -15.2 °C 1021.6 in /  34591.4 hPa NW 22.5 mph /  36.2 km/h 22.5 mph /  36.2 km/h 60 % 0.0 in /  0 mm 0.0 W/m2 CLR
22:25 12.2 °F /  -11 °C 4.7 °F /  -15.2 °C 1021.6 in /  34591.4 hPa West 18.5 mph /  29.8 km/h 18.5 mph /  29.8 km/h 60 % 0.0 in /  0 mm 0.0 W/m2 CLR
22:32 12.2 °F /  -11 °C 4.7 °F /  -15.2 °C 1021.6 in /  34591.4 hPa West 16.7 mph /  26.9 km/h 16.7 mph /  26.9 km/h 60 % 0.0 in /  0 mm 0.0 W/m2 CLR
22:33 12.2 °F /  -11 °C 4.7 °F /  -15.2 °C 1021.6 in /  34591.4 hPa West 16.7 mph /  26.9 km/h 16.7 mph /  26.9 km/h 60 % 0.0 in /  0 mm 0.0 W/m2 CLR
22:42 11.7 °F /  -11.3 °C 4.2 °F /  -15.4 °C 1021.6 in /  34591.4 hPa WNW 14.8 mph /  23.8 km/h 14.8 mph /  23.8 km/h 60 % 0.0 in /  0 mm 0.0 W/m2 CLR
22:43 11.7 °F /  -11.3 °C 4.2 °F /  -15.4 °C 1021.6 in /  34591.4 hPa WNW 14.8 mph /  23.8 km/h 14.8 mph /  23.8 km/h 60 % 0.0 in /  0 mm 0.0 W/m2 CLR
22:44 11.7 °F /  -11.3 °C 4.2 °F /  -15.4 °C 1021.6 in /  34591.4 hPa WNW 14.8 mph /  23.8 km/h 14.8 mph /  23.8 km/h 60 % 0.0 in /  0 mm 0.0 W/m2 CLR
22:46 11.7 °F /  -11.3 °C 4.2 °F /  -15.4 °C 1021.2 in /  34577.8 hPa West 14.8 mph /  23.8 km/h 14.8 mph /  23.8 km/h 60 % 0.0 in /  0 mm 0.0 W/m2 CLR
22:47 11.7 °F /  -11.3 °C 4.2 °F /  -15.4 °C 1021.2 in /  34577.8 hPa West 14.8 mph /  23.8 km/h 14.8 mph /  23.8 km/h 60 % 0.0 in /  0 mm 0.0 W/m2 CLR
22:48 11.1 °F /  -11.6 °C 3.6 °F /  -15.8 °C 1021.2 in /  34577.8 hPa West 11.1 mph /  17.9 km/h 11.1 mph /  17.9 km/h 60 % 0.0 in /  0 mm 0.0 W/m2 CLR
22:49 11.1 °F /  -11.6 °C 3.9 °F /  -15.6 °C 1021.2 in /  34577.8 hPa WNW 11.3 mph /  18.2 km/h 11.3 mph /  18.2 km/h 61 % 0.0 in /  0 mm 0.0 W/m2 CLR
22:50 11.7 °F /  -11.3 °C 4.4 °F /  -15.3 °C 1021.2 in /  34577.8 hPa WNW 14.8 mph /  23.8 km/h 14.8 mph /  23.8 km/h 61 % 0.0 in /  0 mm 0.0 W/m2 CLR
22:53 11.7 °F /  -11.3 °C 4.4 °F /  -15.3 °C 1021.2 in /  34577.8 hPa West 18.5 mph /  29.8 km/h 18.5 mph /  29.8 km/h 61 % 0.0 in /  0 mm 0.0 W/m2 CLR
22:55 11.7 °F /  -11.3 °C 4.4 °F /  -15.3 °C 1021.2 in /  34577.8 hPa West 14.8 mph /  23.8 km/h 14.8 mph /  23.8 km/h 61 % 0.0 in /  0 mm 0.0 W/m2 CLR
23:03 12.2 °F /  -11 °C 4.9 °F /  -15.1 °C 1021.2 in /  34577.8 hPa Calm     61 % 0.0 in /  0 mm 0.0 W/m2 CLR
23:04 12.2 °F /  -11 °C 4.9 °F /  -15.1 °C 1021.2 in /  34577.8 hPa Calm     61 % 0.0 in /  0 mm 0.0 W/m2 CLR
23:09 12.2 °F /  -11 °C 5.2 °F /  -14.9 °C 1021.2 in /  34577.8 hPa West 1.9 mph /  3.1 km/h 1.9 mph /  3.1 km/h 62 % 0.0 in /  0 mm 0.0 W/m2 CLR
23:12 12.2 °F /  -11 °C 5.2 °F /  -14.9 °C 1021.2 in /  34577.8 hPa WSW 5.6 mph /  9 km/h 5.6 mph /  9 km/h 62 % 0.0 in /  0 mm 0.0 W/m2 CLR
23:21 12.8 °F /  -10.7 °C 5.9 °F /  -14.5 °C 1021.2 in /  34577.8 hPa West 9.3 mph /  15 km/h 9.3 mph /  15 km/h 63 % 0.0 in /  0 mm 0.0 W/m2 CLR
23:26 12.8 °F /  -10.7 °C 5.9 °F /  -14.5 °C 1021.2 in /  34577.8 hPa West 16.1 mph /  25.9 km/h 16.1 mph /  25.9 km/h 63 % 0.0 in /  0 mm 0.0 W/m2 CLR
23:31 12.2 °F /  -11 °C 5.6 °F /  -14.7 °C 1021.2 in /  34577.8 hPa West 16.7 mph /  26.9 km/h 16.7 mph /  26.9 km/h 64 % 0.0 in /  0 mm 0.0 W/m2 CLR
23:34 12.2 °F /  -11 °C 5.6 °F /  -14.7 °C 1021.2 in /  34577.8 hPa WSW 16.7 mph /  26.9 km/h 16.7 mph /  26.9 km/h 64 % 0.0 in /  0 mm 0.0 W/m2 CLR
23:36 12.2 °F /  -11 °C 5.6 °F /  -14.7 °C 1020.9 in /  34567.7 hPa WNW 18.5 mph /  29.8 km/h 18.5 mph /  29.8 km/h 64 % 0.0 in /  0 mm 0.0 W/m2 CLR
23:41 12.2 °F /  -11 °C 5.6 °F /  -14.7 °C 1020.9 in /  34567.7 hPa WNW 18.5 mph /  29.8 km/h 18.5 mph /  29.8 km/h 64 % 0.0 in /  0 mm 0.0 W/m2 CLR
23:43 11.7 °F /  -11.3 °C 5.1 °F /  -14.9 °C 1020.9 in /  34567.7 hPa WNW 18.5 mph /  29.8 km/h 18.5 mph /  29.8 km/h 64 % 0.0 in /  0 mm 0.0 W/m2 CLR
23:48 11.7 °F /  -11.3 °C 5.1 °F /  -14.9 °C 1020.9 in /  34567.7 hPa WNW 20.4 mph /  32.8 km/h 20.4 mph /  32.8 km/h 64 % 0.0 in /  0 mm 0.0 W/m2 CLR
23:50 11.7 °F /  -11.3 °C 5.1 °F /  -14.9 °C 1020.9 in /  34567.7 hPa WNW 22.2 mph /  35.7 km/h 22.2 mph /  35.7 km/h 64 % 0.0 in /  0 mm 0.0 W/m2 CLR
23:56 11.7 °F /  -11.3 °C 4.8 °F /  -15.1 °C 1020.9 in /  34567.7 hPa WNW 22.5 mph /  36.2 km/h 22.5 mph /  36.2 km/h 63 % 0.0 in /  0 mm 0.0 W/m2 CLR
23:57 11.7 °F /  -11.3 °C 4.8 °F /  -15.1 °C 1020.9 in /  34567.7 hPa West 25.7 mph /  41.4 km/h 25.7 mph /  41.4 km/h 63 % 0.0 in /  0 mm 0.0 W/m2 CLR
Lo Temps de Massalio
Compliments of Weather Underground - 1.75 mb